<?xml version="1.0" encoding="UTF-8" standalone="no" ?>
<gpx xmlns="http://www.topografix.com/GPX/1/1" xmlns:xsi="http://www.w3.org/2001/XMLSchema-instance" xsi:schemaLocation="http://www.topografix.com/GPX/1/1 http://www.topografix.com/GPX/1/1/gpx.xsd" version="1.1" creator="VisuGPX - https://www.visugpx.com">
  <metadata>
    <name>CARREFOUR DE LUYNES 12</name>
  </metadata>
  <trk>
    <name><![CDATA[CARREFOUR DE LUYNES 12]]></name>
    <trkseg>
      <trkpt lat="48.59181" lon="1.96631">
        <ele>67.91</ele>
        <time>2018-08-16T07:01:41Z</time>
      </trkpt>
      <trkpt lat="48.5918" lon="1.9663">
        <ele>68.39</ele>
        <time>2018-08-16T07:01:42Z</time>
      </trkpt>
      <trkpt lat="48.59175" lon="1.9662">
        <ele>67.91</ele>
        <time>2018-08-16T07:01:50Z</time>
      </trkpt>
      <trkpt lat="48.59173" lon="1.96619">
        <ele>67.91</ele>
        <time>2018-08-16T07:01:53Z</time>
      </trkpt>
      <trkpt lat="48.59169" lon="1.96615">
        <ele>67.43</ele>
        <time>2018-08-16T07:02:02Z</time>
      </trkpt>
      <trkpt lat="48.59166" lon="1.96615">
        <ele>67.43</ele>
        <time>2018-08-16T07:02:14Z</time>
      </trkpt>
      <trkpt lat="48.59165" lon="1.96615">
        <ele>67.43</ele>
        <time>2018-08-16T07:02:25Z</time>
      </trkpt>
      <trkpt lat="48.59163" lon="1.9661">
        <ele>67.91</ele>
        <time>2018-08-16T07:02:40Z</time>
      </trkpt>
      <trkpt lat="48.59163" lon="1.96606">
        <ele>67.43</ele>
        <time>2018-08-16T07:02:51Z</time>
      </trkpt>
      <trkpt lat="48.59167" lon="1.96609">
        <ele>67.43</ele>
        <time>2018-08-16T07:03:04Z</time>
      </trkpt>
      <trkpt lat="48.5917" lon="1.9661">
        <ele>67.91</ele>
        <time>2018-08-16T07:03:21Z</time>
      </trkpt>
      <trkpt lat="48.59176" lon="1.96607">
        <ele>67.91</ele>
        <time>2018-08-16T07:03:35Z</time>
      </trkpt>
      <trkpt lat="48.59177" lon="1.96603">
        <ele>67.43</ele>
        <time>2018-08-16T07:03:43Z</time>
      </trkpt>
      <trkpt lat="48.59177" lon="1.96604">
        <ele>64.55</ele>
        <time>2018-08-16T07:03:47Z</time>
      </trkpt>
      <trkpt lat="48.59177" lon="1.96604">
        <ele>70.31</ele>
        <time>2018-08-16T07:03:48Z</time>
      </trkpt>
      <trkpt lat="48.59175" lon="1.96607">
        <ele>67.43</ele>
        <time>2018-08-16T07:03:59Z</time>
      </trkpt>
      <trkpt lat="48.59174" lon="1.96607">
        <ele>66.95</ele>
        <time>2018-08-16T07:04:05Z</time>
      </trkpt>
      <trkpt lat="48.59169" lon="1.9661">
        <ele>66.95</ele>
        <time>2018-08-16T07:04:09Z</time>
      </trkpt>
      <trkpt lat="48.59168" lon="1.96624">
        <ele>66.95</ele>
        <time>2018-08-16T07:04:18Z</time>
      </trkpt>
      <trkpt lat="48.59167" lon="1.96628">
        <ele>66.95</ele>
        <time>2018-08-16T07:04:21Z</time>
      </trkpt>
      <trkpt lat="48.59165" lon="1.96635">
        <ele>66.47</ele>
        <time>2018-08-16T07:04:25Z</time>
      </trkpt>
      <trkpt lat="48.5916" lon="1.96658">
        <ele>66.47</ele>
        <time>2018-08-16T07:04:37Z</time>
      </trkpt>
      <trkpt lat="48.59158" lon="1.96668">
        <ele>66.95</ele>
        <time>2018-08-16T07:04:42Z</time>
      </trkpt>
      <trkpt lat="48.59157" lon="1.96685">
        <ele>66.47</ele>
        <time>2018-08-16T07:04:52Z</time>
      </trkpt>
      <trkpt lat="48.59157" lon="1.96686">
        <ele>66.47</ele>
        <time>2018-08-16T07:04:53Z</time>
      </trkpt>
      <trkpt lat="48.59156" lon="1.96696">
        <ele>66.47</ele>
        <time>2018-08-16T07:04:57Z</time>
      </trkpt>
      <trkpt lat="48.59149" lon="1.96712">
        <ele>66.47</ele>
        <time>2018-08-16T07:05:06Z</time>
      </trkpt>
      <trkpt lat="48.59144" lon="1.96728">
        <ele>65.99</ele>
        <time>2018-08-16T07:05:13Z</time>
      </trkpt>
      <trkpt lat="48.59137" lon="1.96748">
        <ele>65.03</ele>
        <time>2018-08-16T07:05:23Z</time>
      </trkpt>
      <trkpt lat="48.59129" lon="1.96773">
        <ele>65.03</ele>
        <time>2018-08-16T07:05:34Z</time>
      </trkpt>
      <trkpt lat="48.59124" lon="1.96789">
        <ele>64.55</ele>
        <time>2018-08-16T07:05:42Z</time>
      </trkpt>
      <trkpt lat="48.59121" lon="1.96798">
        <ele>64.55</ele>
        <time>2018-08-16T07:05:46Z</time>
      </trkpt>
      <trkpt lat="48.59114" lon="1.9682">
        <ele>64.55</ele>
        <time>2018-08-16T07:05:58Z</time>
      </trkpt>
      <trkpt lat="48.59108" lon="1.96838">
        <ele>64.55</ele>
        <time>2018-08-16T07:06:07Z</time>
      </trkpt>
      <trkpt lat="48.591" lon="1.96864">
        <ele>64.55</ele>
        <time>2018-08-16T07:06:18Z</time>
      </trkpt>
      <trkpt lat="48.59094" lon="1.96883">
        <ele>64.07</ele>
        <time>2018-08-16T07:06:28Z</time>
      </trkpt>
      <trkpt lat="48.59088" lon="1.96899">
        <ele>64.07</ele>
        <time>2018-08-16T07:06:38Z</time>
      </trkpt>
      <trkpt lat="48.59086" lon="1.96906">
        <ele>64.07</ele>
        <time>2018-08-16T07:06:42Z</time>
      </trkpt>
      <trkpt lat="48.59084" lon="1.96914">
        <ele>64.07</ele>
        <time>2018-08-16T07:06:46Z</time>
      </trkpt>
      <trkpt lat="48.59075" lon="1.96945">
        <ele>64.55</ele>
        <time>2018-08-16T07:06:59Z</time>
      </trkpt>
      <trkpt lat="48.5907" lon="1.96968">
        <ele>64.55</ele>
        <time>2018-08-16T07:07:10Z</time>
      </trkpt>
      <trkpt lat="48.59065" lon="1.96991">
        <ele>64.55</ele>
        <time>2018-08-16T07:07:20Z</time>
      </trkpt>
      <trkpt lat="48.59057" lon="1.97014">
        <ele>64.55</ele>
        <time>2018-08-16T07:07:30Z</time>
      </trkpt>
      <trkpt lat="48.59052" lon="1.97036">
        <ele>63.58</ele>
        <time>2018-08-16T07:07:41Z</time>
      </trkpt>
      <trkpt lat="48.59049" lon="1.97057">
        <ele>63.58</ele>
        <time>2018-08-16T07:07:50Z</time>
      </trkpt>
      <trkpt lat="48.59045" lon="1.97084">
        <ele>63.58</ele>
        <time>2018-08-16T07:08:00Z</time>
      </trkpt>
      <trkpt lat="48.59042" lon="1.97106">
        <ele>63.58</ele>
        <time>2018-08-16T07:08:12Z</time>
      </trkpt>
      <trkpt lat="48.59042" lon="1.97128">
        <ele>63.58</ele>
        <time>2018-08-16T07:08:23Z</time>
      </trkpt>
      <trkpt lat="48.59039" lon="1.97149">
        <ele>63.1</ele>
        <time>2018-08-16T07:08:33Z</time>
      </trkpt>
      <trkpt lat="48.59032" lon="1.97171">
        <ele>63.1</ele>
        <time>2018-08-16T07:08:44Z</time>
      </trkpt>
      <trkpt lat="48.59025" lon="1.97189">
        <ele>63.1</ele>
        <time>2018-08-16T07:08:55Z</time>
      </trkpt>
      <trkpt lat="48.59018" lon="1.97212">
        <ele>63.1</ele>
        <time>2018-08-16T07:09:06Z</time>
      </trkpt>
      <trkpt lat="48.59019" lon="1.97217">
        <ele>62.62</ele>
        <time>2018-08-16T07:09:09Z</time>
      </trkpt>
      <trkpt lat="48.59019" lon="1.97237">
        <ele>64.07</ele>
        <time>2018-08-16T07:09:20Z</time>
      </trkpt>
      <trkpt lat="48.59017" lon="1.97245">
        <ele>63.58</ele>
        <time>2018-08-16T07:09:26Z</time>
      </trkpt>
      <trkpt lat="48.59019" lon="1.97268">
        <ele>64.55</ele>
        <time>2018-08-16T07:09:37Z</time>
      </trkpt>
      <trkpt lat="48.59024" lon="1.97285">
        <ele>65.03</ele>
        <time>2018-08-16T07:09:48Z</time>
      </trkpt>
      <trkpt lat="48.59031" lon="1.97296">
        <ele>65.51</ele>
        <time>2018-08-16T07:09:58Z</time>
      </trkpt>
      <trkpt lat="48.59038" lon="1.97308">
        <ele>66.47</ele>
        <time>2018-08-16T07:10:09Z</time>
      </trkpt>
      <trkpt lat="48.59043" lon="1.97312">
        <ele>65.99</ele>
        <time>2018-08-16T07:10:20Z</time>
      </trkpt>
      <trkpt lat="48.59054" lon="1.97305">
        <ele>66.95</ele>
        <time>2018-08-16T07:10:31Z</time>
      </trkpt>
      <trkpt lat="48.59073" lon="1.97286">
        <ele>67.43</ele>
        <time>2018-08-16T07:10:42Z</time>
      </trkpt>
      <trkpt lat="48.59095" lon="1.97266">
        <ele>67.43</ele>
        <time>2018-08-16T07:10:54Z</time>
      </trkpt>
      <trkpt lat="48.59097" lon="1.97264">
        <ele>67.91</ele>
        <time>2018-08-16T07:10:55Z</time>
      </trkpt>
      <trkpt lat="48.59115" lon="1.9724">
        <ele>67.43</ele>
        <time>2018-08-16T07:11:07Z</time>
      </trkpt>
      <trkpt lat="48.59131" lon="1.97215">
        <ele>68.39</ele>
        <time>2018-08-16T07:11:20Z</time>
      </trkpt>
      <trkpt lat="48.59142" lon="1.9719">
        <ele>68.39</ele>
        <time>2018-08-16T07:11:32Z</time>
      </trkpt>
      <trkpt lat="48.59153" lon="1.97172">
        <ele>69.83</ele>
        <time>2018-08-16T07:11:42Z</time>
      </trkpt>
      <trkpt lat="48.59162" lon="1.97155">
        <ele>71.76</ele>
        <time>2018-08-16T07:11:52Z</time>
      </trkpt>
      <trkpt lat="48.59174" lon="1.97144">
        <ele>72.72</ele>
        <time>2018-08-16T07:12:02Z</time>
      </trkpt>
      <trkpt lat="48.59195" lon="1.97123">
        <ele>72.24</ele>
        <time>2018-08-16T07:12:15Z</time>
      </trkpt>
      <trkpt lat="48.59208" lon="1.97095">
        <ele>72.72</ele>
        <time>2018-08-16T07:12:28Z</time>
      </trkpt>
      <trkpt lat="48.59216" lon="1.97079">
        <ele>73.2</ele>
        <time>2018-08-16T07:12:38Z</time>
      </trkpt>
      <trkpt lat="48.59228" lon="1.97061">
        <ele>73.68</ele>
        <time>2018-08-16T07:12:48Z</time>
      </trkpt>
      <trkpt lat="48.59247" lon="1.97044">
        <ele>73.68</ele>
        <time>2018-08-16T07:13:03Z</time>
      </trkpt>
      <trkpt lat="48.59262" lon="1.97026">
        <ele>74.64</ele>
        <time>2018-08-16T07:13:14Z</time>
      </trkpt>
      <trkpt lat="48.5927" lon="1.97005">
        <ele>77.04</ele>
        <time>2018-08-16T07:13:25Z</time>
      </trkpt>
      <trkpt lat="48.59273" lon="1.96996">
        <ele>77.52</ele>
        <time>2018-08-16T07:13:29Z</time>
      </trkpt>
      <trkpt lat="48.59282" lon="1.96976">
        <ele>79.45</ele>
        <time>2018-08-16T07:13:38Z</time>
      </trkpt>
      <trkpt lat="48.59287" lon="1.96958">
        <ele>80.41</ele>
        <time>2018-08-16T07:13:48Z</time>
      </trkpt>
      <trkpt lat="48.59289" lon="1.96953">
        <ele>81.85</ele>
        <time>2018-08-16T07:13:51Z</time>
      </trkpt>
      <trkpt lat="48.59298" lon="1.96926">
        <ele>82.81</ele>
        <time>2018-08-16T07:14:04Z</time>
      </trkpt>
      <trkpt lat="48.59303" lon="1.96916">
        <ele>84.73</ele>
        <time>2018-08-16T07:14:11Z</time>
      </trkpt>
      <trkpt lat="48.59311" lon="1.9689">
        <ele>88.58</ele>
        <time>2018-08-16T07:14:24Z</time>
      </trkpt>
      <trkpt lat="48.59312" lon="1.96889">
        <ele>87.14</ele>
        <time>2018-08-16T07:14:25Z</time>
      </trkpt>
      <trkpt lat="48.59316" lon="1.96882">
        <ele>89.06</ele>
        <time>2018-08-16T07:14:31Z</time>
      </trkpt>
      <trkpt lat="48.59321" lon="1.96875">
        <ele>90.02</ele>
        <time>2018-08-16T07:14:38Z</time>
      </trkpt>
      <trkpt lat="48.59328" lon="1.96853">
        <ele>91.46</ele>
        <time>2018-08-16T07:14:51Z</time>
      </trkpt>
      <trkpt lat="48.59333" lon="1.96833">
        <ele>92.9</ele>
        <time>2018-08-16T07:15:01Z</time>
      </trkpt>
      <trkpt lat="48.5934" lon="1.96815">
        <ele>94.35</ele>
        <time>2018-08-16T07:15:12Z</time>
      </trkpt>
      <trkpt lat="48.59342" lon="1.96802">
        <ele>95.79</ele>
        <time>2018-08-16T07:15:18Z</time>
      </trkpt>
      <trkpt lat="48.59348" lon="1.96787">
        <ele>96.27</ele>
        <time>2018-08-16T07:15:27Z</time>
      </trkpt>
      <trkpt lat="48.59349" lon="1.96784">
        <ele>95.79</ele>
        <time>2018-08-16T07:15:33Z</time>
      </trkpt>
      <trkpt lat="48.59357" lon="1.96768">
        <ele>95.79</ele>
        <time>2018-08-16T07:15:45Z</time>
      </trkpt>
      <trkpt lat="48.5936" lon="1.96763">
        <ele>95.79</ele>
        <time>2018-08-16T07:15:54Z</time>
      </trkpt>
      <trkpt lat="48.59366" lon="1.9675">
        <ele>95.31</ele>
        <time>2018-08-16T07:16:04Z</time>
      </trkpt>
      <trkpt lat="48.59373" lon="1.96736">
        <ele>94.83</ele>
        <time>2018-08-16T07:16:13Z</time>
      </trkpt>
      <trkpt lat="48.59374" lon="1.96733">
        <ele>95.31</ele>
        <time>2018-08-16T07:16:19Z</time>
      </trkpt>
      <trkpt lat="48.59375" lon="1.9673">
        <ele>96.75</ele>
        <time>2018-08-16T07:16:21Z</time>
      </trkpt>
      <trkpt lat="48.5938" lon="1.9672">
        <ele>100.11</ele>
        <time>2018-08-16T07:16:26Z</time>
      </trkpt>
      <trkpt lat="48.59382" lon="1.96718">
        <ele>100.11</ele>
        <time>2018-08-16T07:16:27Z</time>
      </trkpt>
      <trkpt lat="48.59393" lon="1.96704">
        <ele>100.6</ele>
        <time>2018-08-16T07:16:36Z</time>
      </trkpt>
      <trkpt lat="48.59397" lon="1.96698">
        <ele>100.6</ele>
        <time>2018-08-16T07:16:43Z</time>
      </trkpt>
      <trkpt lat="48.59399" lon="1.96701">
        <ele>101.08</ele>
        <time>2018-08-16T07:16:46Z</time>
      </trkpt>
      <trkpt lat="48.59405" lon="1.96708">
        <ele>102.04</ele>
        <time>2018-08-16T07:16:53Z</time>
      </trkpt>
      <trkpt lat="48.59408" lon="1.96722">
        <ele>102.52</ele>
        <time>2018-08-16T07:17:02Z</time>
      </trkpt>
      <trkpt lat="48.59409" lon="1.96724">
        <ele>103</ele>
        <time>2018-08-16T07:17:03Z</time>
      </trkpt>
      <trkpt lat="48.59408" lon="1.96745">
        <ele>105.4</ele>
        <time>2018-08-16T07:17:15Z</time>
      </trkpt>
      <trkpt lat="48.59414" lon="1.96763">
        <ele>107.81</ele>
        <time>2018-08-16T07:17:25Z</time>
      </trkpt>
      <trkpt lat="48.59421" lon="1.9678">
        <ele>107.81</ele>
        <time>2018-08-16T07:17:35Z</time>
      </trkpt>
      <trkpt lat="48.59426" lon="1.96799">
        <ele>109.73</ele>
        <time>2018-08-16T07:17:45Z</time>
      </trkpt>
      <trkpt lat="48.59431" lon="1.96816">
        <ele>110.69</ele>
        <time>2018-08-16T07:17:55Z</time>
      </trkpt>
      <trkpt lat="48.59431" lon="1.96827">
        <ele>112.13</ele>
        <time>2018-08-16T07:18:00Z</time>
      </trkpt>
      <trkpt lat="48.5943" lon="1.96843">
        <ele>113.57</ele>
        <time>2018-08-16T07:18:08Z</time>
      </trkpt>
      <trkpt lat="48.59421" lon="1.96851">
        <ele>114.53</ele>
        <time>2018-08-16T07:18:17Z</time>
      </trkpt>
      <trkpt lat="48.59408" lon="1.96857">
        <ele>116.94</ele>
        <time>2018-08-16T07:18:28Z</time>
      </trkpt>
      <trkpt lat="48.59402" lon="1.96867">
        <ele>117.9</ele>
        <time>2018-08-16T07:18:35Z</time>
      </trkpt>
      <trkpt lat="48.59396" lon="1.96879">
        <ele>118.38</ele>
        <time>2018-08-16T07:18:43Z</time>
      </trkpt>
      <trkpt lat="48.59393" lon="1.96886">
        <ele>118.38</ele>
        <time>2018-08-16T07:18:48Z</time>
      </trkpt>
      <trkpt lat="48.59393" lon="1.96899">
        <ele>118.38</ele>
        <time>2018-08-16T07:18:56Z</time>
      </trkpt>
      <trkpt lat="48.59394" lon="1.969">
        <ele>118.38</ele>
        <time>2018-08-16T07:19:01Z</time>
      </trkpt>
      <trkpt lat="48.59395" lon="1.96914">
        <ele>118.38</ele>
        <time>2018-08-16T07:19:10Z</time>
      </trkpt>
      <trkpt lat="48.59397" lon="1.96936">
        <ele>118.38</ele>
        <time>2018-08-16T07:19:21Z</time>
      </trkpt>
      <trkpt lat="48.59405" lon="1.96955">
        <ele>117.9</ele>
        <time>2018-08-16T07:19:32Z</time>
      </trkpt>
      <trkpt lat="48.59409" lon="1.96959">
        <ele>117.9</ele>
        <time>2018-08-16T07:19:36Z</time>
      </trkpt>
      <trkpt lat="48.59411" lon="1.96975">
        <ele>117.9</ele>
        <time>2018-08-16T07:19:45Z</time>
      </trkpt>
      <trkpt lat="48.59409" lon="1.96991">
        <ele>118.38</ele>
        <time>2018-08-16T07:19:53Z</time>
      </trkpt>
      <trkpt lat="48.59408" lon="1.96996">
        <ele>118.86</ele>
        <time>2018-08-16T07:19:56Z</time>
      </trkpt>
      <trkpt lat="48.5941" lon="1.97013">
        <ele>118.86</ele>
        <time>2018-08-16T07:20:03Z</time>
      </trkpt>
      <trkpt lat="48.59413" lon="1.97034">
        <ele>119.34</ele>
        <time>2018-08-16T07:20:13Z</time>
      </trkpt>
      <trkpt lat="48.59419" lon="1.97055">
        <ele>119.82</ele>
        <time>2018-08-16T07:20:24Z</time>
      </trkpt>
      <trkpt lat="48.59422" lon="1.9707">
        <ele>119.82</ele>
        <time>2018-08-16T07:20:31Z</time>
      </trkpt>
      <trkpt lat="48.59428" lon="1.97091">
        <ele>120.3</ele>
        <time>2018-08-16T07:20:42Z</time>
      </trkpt>
      <trkpt lat="48.59431" lon="1.97108">
        <ele>119.82</ele>
        <time>2018-08-16T07:20:49Z</time>
      </trkpt>
      <trkpt lat="48.59431" lon="1.97123">
        <ele>120.3</ele>
        <time>2018-08-16T07:20:56Z</time>
      </trkpt>
      <trkpt lat="48.59432" lon="1.97141">
        <ele>120.78</ele>
        <time>2018-08-16T07:21:05Z</time>
      </trkpt>
      <trkpt lat="48.59437" lon="1.97157">
        <ele>120.3</ele>
        <time>2018-08-16T07:21:12Z</time>
      </trkpt>
      <trkpt lat="48.59441" lon="1.97178">
        <ele>120.3</ele>
        <time>2018-08-16T07:21:23Z</time>
      </trkpt>
      <trkpt lat="48.59437" lon="1.97195">
        <ele>120.78</ele>
        <time>2018-08-16T07:21:31Z</time>
      </trkpt>
      <trkpt lat="48.59436" lon="1.97198">
        <ele>120.78</ele>
        <time>2018-08-16T07:21:33Z</time>
      </trkpt>
      <trkpt lat="48.59429" lon="1.97214">
        <ele>120.78</ele>
        <time>2018-08-16T07:21:43Z</time>
      </trkpt>
      <trkpt lat="48.59425" lon="1.97231">
        <ele>118.86</ele>
        <time>2018-08-16T07:21:52Z</time>
      </trkpt>
      <trkpt lat="48.59425" lon="1.97238">
        <ele>118.38</ele>
        <time>2018-08-16T07:21:57Z</time>
      </trkpt>
      <trkpt lat="48.59432" lon="1.97248">
        <ele>117.9</ele>
        <time>2018-08-16T07:22:05Z</time>
      </trkpt>
      <trkpt lat="48.59437" lon="1.9726">
        <ele>116.94</ele>
        <time>2018-08-16T07:22:12Z</time>
      </trkpt>
      <trkpt lat="48.59445" lon="1.97277">
        <ele>115.5</ele>
        <time>2018-08-16T07:22:23Z</time>
      </trkpt>
      <trkpt lat="48.59454" lon="1.97289">
        <ele>113.09</ele>
        <time>2018-08-16T07:22:35Z</time>
      </trkpt>
      <trkpt lat="48.59458" lon="1.97298">
        <ele>110.69</ele>
        <time>2018-08-16T07:22:44Z</time>
      </trkpt>
      <trkpt lat="48.59459" lon="1.97317">
        <ele>108.29</ele>
        <time>2018-08-16T07:22:54Z</time>
      </trkpt>
      <trkpt lat="48.59461" lon="1.97329">
        <ele>106.36</ele>
        <time>2018-08-16T07:23:03Z</time>
      </trkpt>
      <trkpt lat="48.59467" lon="1.97345">
        <ele>104.92</ele>
        <time>2018-08-16T07:23:13Z</time>
      </trkpt>
      <trkpt lat="48.59467" lon="1.97346">
        <ele>104.92</ele>
        <time>2018-08-16T07:23:14Z</time>
      </trkpt>
      <trkpt lat="48.5947" lon="1.97373">
        <ele>103</ele>
        <time>2018-08-16T07:23:27Z</time>
      </trkpt>
      <trkpt lat="48.59472" lon="1.97387">
        <ele>102.52</ele>
        <time>2018-08-16T07:23:36Z</time>
      </trkpt>
      <trkpt lat="48.59472" lon="1.97403">
        <ele>103</ele>
        <time>2018-08-16T07:23:46Z</time>
      </trkpt>
      <trkpt lat="48.59469" lon="1.97421">
        <ele>103.48</ele>
        <time>2018-08-16T07:23:56Z</time>
      </trkpt>
      <trkpt lat="48.5947" lon="1.97421">
        <ele>103.48</ele>
        <time>2018-08-16T07:24:05Z</time>
      </trkpt>
      <trkpt lat="48.59472" lon="1.97423">
        <ele>103.96</ele>
        <time>2018-08-16T07:24:18Z</time>
      </trkpt>
      <trkpt lat="48.59475" lon="1.97424">
        <ele>104.44</ele>
        <time>2018-08-16T07:24:34Z</time>
      </trkpt>
      <trkpt lat="48.59474" lon="1.97425">
        <ele>104.92</ele>
        <time>2018-08-16T07:24:43Z</time>
      </trkpt>
      <trkpt lat="48.59462" lon="1.9744">
        <ele>105.88</ele>
        <time>2018-08-16T07:24:55Z</time>
      </trkpt>
      <trkpt lat="48.59458" lon="1.97454">
        <ele>106.36</ele>
        <time>2018-08-16T07:25:04Z</time>
      </trkpt>
      <trkpt lat="48.59456" lon="1.97473">
        <ele>107.32</ele>
        <time>2018-08-16T07:25:13Z</time>
      </trkpt>
      <trkpt lat="48.59454" lon="1.97491">
        <ele>108.29</ele>
        <time>2018-08-16T07:25:25Z</time>
      </trkpt>
      <trkpt lat="48.59454" lon="1.97493">
        <ele>109.73</ele>
        <time>2018-08-16T07:25:26Z</time>
      </trkpt>
      <trkpt lat="48.59447" lon="1.97512">
        <ele>110.21</ele>
        <time>2018-08-16T07:25:37Z</time>
      </trkpt>
      <trkpt lat="48.59439" lon="1.97531">
        <ele>111.17</ele>
        <time>2018-08-16T07:25:47Z</time>
      </trkpt>
      <trkpt lat="48.59429" lon="1.97551">
        <ele>112.61</ele>
        <time>2018-08-16T07:25:59Z</time>
      </trkpt>
      <trkpt lat="48.5942" lon="1.9757">
        <ele>113.57</ele>
        <time>2018-08-16T07:26:10Z</time>
      </trkpt>
      <trkpt lat="48.59413" lon="1.97586">
        <ele>114.53</ele>
        <time>2018-08-16T07:26:18Z</time>
      </trkpt>
      <trkpt lat="48.59408" lon="1.97605">
        <ele>116.46</ele>
        <time>2018-08-16T07:26:28Z</time>
      </trkpt>
      <trkpt lat="48.59406" lon="1.97615">
        <ele>116.94</ele>
        <time>2018-08-16T07:26:34Z</time>
      </trkpt>
      <trkpt lat="48.59405" lon="1.97631">
        <ele>118.86</ele>
        <time>2018-08-16T07:26:43Z</time>
      </trkpt>
      <trkpt lat="48.59403" lon="1.97643">
        <ele>119.82</ele>
        <time>2018-08-16T07:26:50Z</time>
      </trkpt>
      <trkpt lat="48.59403" lon="1.97645">
        <ele>120.3</ele>
        <time>2018-08-16T07:26:51Z</time>
      </trkpt>
      <trkpt lat="48.59403" lon="1.97662">
        <ele>121.26</ele>
        <time>2018-08-16T07:27:00Z</time>
      </trkpt>
      <trkpt lat="48.59405" lon="1.97675">
        <ele>123.19</ele>
        <time>2018-08-16T07:27:09Z</time>
      </trkpt>
      <trkpt lat="48.59407" lon="1.97688">
        <ele>124.63</ele>
        <time>2018-08-16T07:27:16Z</time>
      </trkpt>
      <trkpt lat="48.59411" lon="1.97708">
        <ele>126.07</ele>
        <time>2018-08-16T07:27:27Z</time>
      </trkpt>
      <trkpt lat="48.59415" lon="1.97724">
        <ele>127.03</ele>
        <time>2018-08-16T07:27:37Z</time>
      </trkpt>
      <trkpt lat="48.59421" lon="1.97728">
        <ele>127.51</ele>
        <time>2018-08-16T07:27:48Z</time>
      </trkpt>
      <trkpt lat="48.59423" lon="1.97737">
        <ele>128.47</ele>
        <time>2018-08-16T07:28:03Z</time>
      </trkpt>
      <trkpt lat="48.59421" lon="1.97742">
        <ele>128.95</ele>
        <time>2018-08-16T07:28:11Z</time>
      </trkpt>
      <trkpt lat="48.59419" lon="1.9774">
        <ele>128.95</ele>
        <time>2018-08-16T07:28:14Z</time>
      </trkpt>
      <trkpt lat="48.59405" lon="1.97728">
        <ele>128.95</ele>
        <time>2018-08-16T07:28:25Z</time>
      </trkpt>
      <trkpt lat="48.59401" lon="1.97726">
        <ele>129.43</ele>
        <time>2018-08-16T07:28:29Z</time>
      </trkpt>
      <trkpt lat="48.59393" lon="1.97722">
        <ele>129.43</ele>
        <time>2018-08-16T07:28:37Z</time>
      </trkpt>
      <trkpt lat="48.59384" lon="1.97712">
        <ele>129.43</ele>
        <time>2018-08-16T07:28:44Z</time>
      </trkpt>
      <trkpt lat="48.59372" lon="1.97708">
        <ele>129.92</ele>
        <time>2018-08-16T07:28:54Z</time>
      </trkpt>
      <trkpt lat="48.59361" lon="1.97704">
        <ele>129.43</ele>
        <time>2018-08-16T07:29:03Z</time>
      </trkpt>
      <trkpt lat="48.59355" lon="1.9771">
        <ele>129.92</ele>
        <time>2018-08-16T07:29:12Z</time>
      </trkpt>
      <trkpt lat="48.59351" lon="1.97725">
        <ele>129.92</ele>
        <time>2018-08-16T07:29:22Z</time>
      </trkpt>
      <trkpt lat="48.5935" lon="1.97727">
        <ele>129.92</ele>
        <time>2018-08-16T07:29:23Z</time>
      </trkpt>
      <trkpt lat="48.5934" lon="1.97749">
        <ele>129.92</ele>
        <time>2018-08-16T07:29:35Z</time>
      </trkpt>
      <trkpt lat="48.59338" lon="1.97768">
        <ele>129.92</ele>
        <time>2018-08-16T07:29:43Z</time>
      </trkpt>
      <trkpt lat="48.5934" lon="1.97785">
        <ele>129.92</ele>
        <time>2018-08-16T07:29:50Z</time>
      </trkpt>
      <trkpt lat="48.59346" lon="1.97809">
        <ele>129.92</ele>
        <time>2018-08-16T07:30:00Z</time>
      </trkpt>
      <trkpt lat="48.5935" lon="1.97829">
        <ele>129.92</ele>
        <time>2018-08-16T07:30:10Z</time>
      </trkpt>
      <trkpt lat="48.59355" lon="1.97842">
        <ele>129.92</ele>
        <time>2018-08-16T07:30:17Z</time>
      </trkpt>
      <trkpt lat="48.59358" lon="1.97862">
        <ele>129.92</ele>
        <time>2018-08-16T07:30:26Z</time>
      </trkpt>
      <trkpt lat="48.59362" lon="1.97877">
        <ele>130.4</ele>
        <time>2018-08-16T07:30:34Z</time>
      </trkpt>
      <trkpt lat="48.59363" lon="1.97885">
        <ele>130.4</ele>
        <time>2018-08-16T07:30:38Z</time>
      </trkpt>
      <trkpt lat="48.59368" lon="1.97909">
        <ele>130.4</ele>
        <time>2018-08-16T07:30:48Z</time>
      </trkpt>
      <trkpt lat="48.5937" lon="1.97932">
        <ele>130.4</ele>
        <time>2018-08-16T07:30:58Z</time>
      </trkpt>
      <trkpt lat="48.59367" lon="1.97953">
        <ele>130.4</ele>
        <time>2018-08-16T07:31:07Z</time>
      </trkpt>
      <trkpt lat="48.59364" lon="1.97967">
        <ele>130.4</ele>
        <time>2018-08-16T07:31:15Z</time>
      </trkpt>
      <trkpt lat="48.59359" lon="1.97983">
        <ele>130.4</ele>
        <time>2018-08-16T07:31:23Z</time>
      </trkpt>
      <trkpt lat="48.59354" lon="1.97996">
        <ele>129.92</ele>
        <time>2018-08-16T07:31:32Z</time>
      </trkpt>
      <trkpt lat="48.59353" lon="1.98008">
        <ele>129.92</ele>
        <time>2018-08-16T07:31:40Z</time>
      </trkpt>
      <trkpt lat="48.59353" lon="1.98019">
        <ele>130.4</ele>
        <time>2018-08-16T07:31:47Z</time>
      </trkpt>
      <trkpt lat="48.59354" lon="1.98022">
        <ele>129.92</ele>
        <time>2018-08-16T07:31:49Z</time>
      </trkpt>
      <trkpt lat="48.59357" lon="1.98038">
        <ele>130.4</ele>
        <time>2018-08-16T07:31:59Z</time>
      </trkpt>
      <trkpt lat="48.59359" lon="1.98042">
        <ele>129.92</ele>
        <time>2018-08-16T07:32:02Z</time>
      </trkpt>
      <trkpt lat="48.5937" lon="1.98055">
        <ele>130.4</ele>
        <time>2018-08-16T07:32:12Z</time>
      </trkpt>
      <trkpt lat="48.59387" lon="1.98074">
        <ele>129.92</ele>
        <time>2018-08-16T07:32:22Z</time>
      </trkpt>
      <trkpt lat="48.59397" lon="1.98079">
        <ele>129.92</ele>
        <time>2018-08-16T07:32:30Z</time>
      </trkpt>
      <trkpt lat="48.59399" lon="1.98081">
        <ele>129.92</ele>
        <time>2018-08-16T07:32:32Z</time>
      </trkpt>
      <trkpt lat="48.59411" lon="1.98084">
        <ele>129.92</ele>
        <time>2018-08-16T07:32:42Z</time>
      </trkpt>
      <trkpt lat="48.59426" lon="1.98075">
        <ele>130.4</ele>
        <time>2018-08-16T07:32:52Z</time>
      </trkpt>
      <trkpt lat="48.59439" lon="1.98062">
        <ele>130.4</ele>
        <time>2018-08-16T07:33:03Z</time>
      </trkpt>
      <trkpt lat="48.59451" lon="1.98045">
        <ele>130.88</ele>
        <time>2018-08-16T07:33:13Z</time>
      </trkpt>
      <trkpt lat="48.59463" lon="1.98025">
        <ele>130.88</ele>
        <time>2018-08-16T07:33:23Z</time>
      </trkpt>
      <trkpt lat="48.59476" lon="1.98013">
        <ele>130.88</ele>
        <time>2018-08-16T07:33:32Z</time>
      </trkpt>
      <trkpt lat="48.59489" lon="1.97999">
        <ele>130.88</ele>
        <time>2018-08-16T07:33:43Z</time>
      </trkpt>
      <trkpt lat="48.59505" lon="1.97991">
        <ele>130.88</ele>
        <time>2018-08-16T07:33:54Z</time>
      </trkpt>
      <trkpt lat="48.59519" lon="1.97995">
        <ele>130.88</ele>
        <time>2018-08-16T07:34:03Z</time>
      </trkpt>
      <trkpt lat="48.59528" lon="1.98007">
        <ele>130.4</ele>
        <time>2018-08-16T07:34:14Z</time>
      </trkpt>
      <trkpt lat="48.59535" lon="1.98017">
        <ele>130.4</ele>
        <time>2018-08-16T07:34:23Z</time>
      </trkpt>
      <trkpt lat="48.59548" lon="1.98023">
        <ele>129.43</ele>
        <time>2018-08-16T07:34:32Z</time>
      </trkpt>
      <trkpt lat="48.59555" lon="1.98027">
        <ele>129.43</ele>
        <time>2018-08-16T07:34:37Z</time>
      </trkpt>
      <trkpt lat="48.59577" lon="1.98035">
        <ele>128.47</ele>
        <time>2018-08-16T07:34:49Z</time>
      </trkpt>
      <trkpt lat="48.59583" lon="1.98042">
        <ele>127.51</ele>
        <time>2018-08-16T07:34:56Z</time>
      </trkpt>
      <trkpt lat="48.59598" lon="1.98063">
        <ele>126.55</ele>
        <time>2018-08-16T07:35:07Z</time>
      </trkpt>
      <trkpt lat="48.59611" lon="1.98077">
        <ele>125.59</ele>
        <time>2018-08-16T07:35:17Z</time>
      </trkpt>
      <trkpt lat="48.59625" lon="1.98094">
        <ele>125.59</ele>
        <time>2018-08-16T07:35:28Z</time>
      </trkpt>
      <trkpt lat="48.59638" lon="1.9811">
        <ele>125.11</ele>
        <time>2018-08-16T07:35:37Z</time>
      </trkpt>
      <trkpt lat="48.59648" lon="1.98123">
        <ele>125.11</ele>
        <time>2018-08-16T07:35:46Z</time>
      </trkpt>
      <trkpt lat="48.5966" lon="1.98137">
        <ele>124.63</ele>
        <time>2018-08-16T07:35:57Z</time>
      </trkpt>
      <trkpt lat="48.5967" lon="1.98154">
        <ele>124.15</ele>
        <time>2018-08-16T07:36:07Z</time>
      </trkpt>
      <trkpt lat="48.59678" lon="1.9817">
        <ele>123.67</ele>
        <time>2018-08-16T07:36:15Z</time>
      </trkpt>
      <trkpt lat="48.59687" lon="1.98179">
        <ele>122.71</ele>
        <time>2018-08-16T07:36:24Z</time>
      </trkpt>
      <trkpt lat="48.59698" lon="1.98187">
        <ele>121.74</ele>
        <time>2018-08-16T07:36:33Z</time>
      </trkpt>
      <trkpt lat="48.59713" lon="1.98196">
        <ele>120.3</ele>
        <time>2018-08-16T07:36:43Z</time>
      </trkpt>
      <trkpt lat="48.59729" lon="1.98202">
        <ele>118.86</ele>
        <time>2018-08-16T07:36:53Z</time>
      </trkpt>
      <trkpt lat="48.59741" lon="1.98209">
        <ele>117.42</ele>
        <time>2018-08-16T07:37:03Z</time>
      </trkpt>
      <trkpt lat="48.59751" lon="1.98213">
        <ele>116.46</ele>
        <time>2018-08-16T07:37:12Z</time>
      </trkpt>
      <trkpt lat="48.59754" lon="1.98213">
        <ele>116.46</ele>
        <time>2018-08-16T07:37:14Z</time>
      </trkpt>
      <trkpt lat="48.59769" lon="1.98222">
        <ele>115.01</ele>
        <time>2018-08-16T07:37:25Z</time>
      </trkpt>
      <trkpt lat="48.59779" lon="1.98234">
        <ele>113.09</ele>
        <time>2018-08-16T07:37:35Z</time>
      </trkpt>
      <trkpt lat="48.59785" lon="1.98245">
        <ele>111.65</ele>
        <time>2018-08-16T07:37:44Z</time>
      </trkpt>
      <trkpt lat="48.59798" lon="1.98251">
        <ele>109.73</ele>
        <time>2018-08-16T07:37:53Z</time>
      </trkpt>
      <trkpt lat="48.59803" lon="1.98249">
        <ele>109.73</ele>
        <time>2018-08-16T07:37:56Z</time>
      </trkpt>
      <trkpt lat="48.59822" lon="1.98252">
        <ele>107.32</ele>
        <time>2018-08-16T07:38:08Z</time>
      </trkpt>
      <trkpt lat="48.59836" lon="1.98257">
        <ele>104.92</ele>
        <time>2018-08-16T07:38:18Z</time>
      </trkpt>
      <trkpt lat="48.59847" lon="1.98265">
        <ele>103.48</ele>
        <time>2018-08-16T07:38:28Z</time>
      </trkpt>
      <trkpt lat="48.59861" lon="1.9827">
        <ele>102.52</ele>
        <time>2018-08-16T07:38:38Z</time>
      </trkpt>
      <trkpt lat="48.59876" lon="1.98277">
        <ele>101.56</ele>
        <time>2018-08-16T07:38:48Z</time>
      </trkpt>
      <trkpt lat="48.59886" lon="1.98287">
        <ele>100.6</ele>
        <time>2018-08-16T07:38:57Z</time>
      </trkpt>
      <trkpt lat="48.59897" lon="1.983">
        <ele>99.63</ele>
        <time>2018-08-16T07:39:07Z</time>
      </trkpt>
      <trkpt lat="48.599" lon="1.98304">
        <ele>100.11</ele>
        <time>2018-08-16T07:39:09Z</time>
      </trkpt>
      <trkpt lat="48.59912" lon="1.98324">
        <ele>99.15</ele>
        <time>2018-08-16T07:39:19Z</time>
      </trkpt>
      <trkpt lat="48.59917" lon="1.98338">
        <ele>99.15</ele>
        <time>2018-08-16T07:39:29Z</time>
      </trkpt>
      <trkpt lat="48.5993" lon="1.98356">
        <ele>98.19</ele>
        <time>2018-08-16T07:39:40Z</time>
      </trkpt>
      <trkpt lat="48.59944" lon="1.98375">
        <ele>98.19</ele>
        <time>2018-08-16T07:39:50Z</time>
      </trkpt>
      <trkpt lat="48.59952" lon="1.98393">
        <ele>97.23</ele>
        <time>2018-08-16T07:39:59Z</time>
      </trkpt>
      <trkpt lat="48.59962" lon="1.98412">
        <ele>96.75</ele>
        <time>2018-08-16T07:40:09Z</time>
      </trkpt>
      <trkpt lat="48.59975" lon="1.98428">
        <ele>96.27</ele>
        <time>2018-08-16T07:40:19Z</time>
      </trkpt>
      <trkpt lat="48.59987" lon="1.98444">
        <ele>95.79</ele>
        <time>2018-08-16T07:40:30Z</time>
      </trkpt>
      <trkpt lat="48.59999" lon="1.98459">
        <ele>95.31</ele>
        <time>2018-08-16T07:40:41Z</time>
      </trkpt>
      <trkpt lat="48.60001" lon="1.98463">
        <ele>94.83</ele>
        <time>2018-08-16T07:40:43Z</time>
      </trkpt>
      <trkpt lat="48.60008" lon="1.98473">
        <ele>94.83</ele>
        <time>2018-08-16T07:40:47Z</time>
      </trkpt>
      <trkpt lat="48.60027" lon="1.98465">
        <ele>96.27</ele>
        <time>2018-08-16T07:41:00Z</time>
      </trkpt>
      <trkpt lat="48.60039" lon="1.98454">
        <ele>97.23</ele>
        <time>2018-08-16T07:41:10Z</time>
      </trkpt>
      <trkpt lat="48.60058" lon="1.98438">
        <ele>97.71</ele>
        <time>2018-08-16T07:41:23Z</time>
      </trkpt>
      <trkpt lat="48.60068" lon="1.98428">
        <ele>98.19</ele>
        <time>2018-08-16T07:41:32Z</time>
      </trkpt>
      <trkpt lat="48.60083" lon="1.9842">
        <ele>97.71</ele>
        <time>2018-08-16T07:41:43Z</time>
      </trkpt>
      <trkpt lat="48.60098" lon="1.98408">
        <ele>96.75</ele>
        <time>2018-08-16T07:41:53Z</time>
      </trkpt>
      <trkpt lat="48.60105" lon="1.98407">
        <ele>96.27</ele>
        <time>2018-08-16T07:41:59Z</time>
      </trkpt>
      <trkpt lat="48.6012" lon="1.98387">
        <ele>96.27</ele>
        <time>2018-08-16T07:42:11Z</time>
      </trkpt>
      <trkpt lat="48.6013" lon="1.98377">
        <ele>95.79</ele>
        <time>2018-08-16T07:42:19Z</time>
      </trkpt>
      <trkpt lat="48.60142" lon="1.98372">
        <ele>93.87</ele>
        <time>2018-08-16T07:42:30Z</time>
      </trkpt>
      <trkpt lat="48.60143" lon="1.9837">
        <ele>94.35</ele>
        <time>2018-08-16T07:42:32Z</time>
      </trkpt>
      <trkpt lat="48.60151" lon="1.98364">
        <ele>92.9</ele>
        <time>2018-08-16T07:42:42Z</time>
      </trkpt>
      <trkpt lat="48.60157" lon="1.98366">
        <ele>92.42</ele>
        <time>2018-08-16T07:42:46Z</time>
      </trkpt>
      <trkpt lat="48.60174" lon="1.98363">
        <ele>91.94</ele>
        <time>2018-08-16T07:42:58Z</time>
      </trkpt>
      <trkpt lat="48.60176" lon="1.98361">
        <ele>92.42</ele>
        <time>2018-08-16T07:42:59Z</time>
      </trkpt>
      <trkpt lat="48.60183" lon="1.98356">
        <ele>91.94</ele>
        <time>2018-08-16T07:43:04Z</time>
      </trkpt>
      <trkpt lat="48.60189" lon="1.98356">
        <ele>91.46</ele>
        <time>2018-08-16T07:43:09Z</time>
      </trkpt>
      <trkpt lat="48.60202" lon="1.98351">
        <ele>92.9</ele>
        <time>2018-08-16T07:43:20Z</time>
      </trkpt>
      <trkpt lat="48.60214" lon="1.98341">
        <ele>94.35</ele>
        <time>2018-08-16T07:43:29Z</time>
      </trkpt>
      <trkpt lat="48.60216" lon="1.98339">
        <ele>94.35</ele>
        <time>2018-08-16T07:43:37Z</time>
      </trkpt>
      <trkpt lat="48.60223" lon="1.98332">
        <ele>94.83</ele>
        <time>2018-08-16T07:43:46Z</time>
      </trkpt>
      <trkpt lat="48.60223" lon="1.9833">
        <ele>95.31</ele>
        <time>2018-08-16T07:43:57Z</time>
      </trkpt>
      <trkpt lat="48.60225" lon="1.98328">
        <ele>95.31</ele>
        <time>2018-08-16T07:44:07Z</time>
      </trkpt>
      <trkpt lat="48.60226" lon="1.98328">
        <ele>95.79</ele>
        <time>2018-08-16T07:44:20Z</time>
      </trkpt>
      <trkpt lat="48.60226" lon="1.98328">
        <ele>95.79</ele>
        <time>2018-08-16T07:44:36Z</time>
      </trkpt>
      <trkpt lat="48.60226" lon="1.98326">
        <ele>96.27</ele>
        <time>2018-08-16T07:44:45Z</time>
      </trkpt>
      <trkpt lat="48.60227" lon="1.98317">
        <ele>96.75</ele>
        <time>2018-08-16T07:45:00Z</time>
      </trkpt>
      <trkpt lat="48.60227" lon="1.98319">
        <ele>97.71</ele>
        <time>2018-08-16T07:45:14Z</time>
      </trkpt>
      <trkpt lat="48.60232" lon="1.98315">
        <ele>97.23</ele>
        <time>2018-08-16T07:45:22Z</time>
      </trkpt>
      <trkpt lat="48.60235" lon="1.98311">
        <ele>97.71</ele>
        <time>2018-08-16T07:45:27Z</time>
      </trkpt>
      <trkpt lat="48.60239" lon="1.98305">
        <ele>98.67</ele>
        <time>2018-08-16T07:45:36Z</time>
      </trkpt>
      <trkpt lat="48.6024" lon="1.98305">
        <ele>98.19</ele>
        <time>2018-08-16T07:45:37Z</time>
      </trkpt>
      <trkpt lat="48.60245" lon="1.98303">
        <ele>98.19</ele>
        <time>2018-08-16T07:45:41Z</time>
      </trkpt>
      <trkpt lat="48.60256" lon="1.98297">
        <ele>98.67</ele>
        <time>2018-08-16T07:45:49Z</time>
      </trkpt>
      <trkpt lat="48.60264" lon="1.98295">
        <ele>98.19</ele>
        <time>2018-08-16T07:45:56Z</time>
      </trkpt>
      <trkpt lat="48.6027" lon="1.98293">
        <ele>97.23</ele>
        <time>2018-08-16T07:46:03Z</time>
      </trkpt>
      <trkpt lat="48.60285" lon="1.98287">
        <ele>96.27</ele>
        <time>2018-08-16T07:46:13Z</time>
      </trkpt>
      <trkpt lat="48.60294" lon="1.98278">
        <ele>95.31</ele>
        <time>2018-08-16T07:46:22Z</time>
      </trkpt>
      <trkpt lat="48.60306" lon="1.9827">
        <ele>93.39</ele>
        <time>2018-08-16T07:46:31Z</time>
      </trkpt>
      <trkpt lat="48.6032" lon="1.98267">
        <ele>90.98</ele>
        <time>2018-08-16T07:46:39Z</time>
      </trkpt>
      <trkpt lat="48.60331" lon="1.98255">
        <ele>89.54</ele>
        <time>2018-08-16T07:46:48Z</time>
      </trkpt>
      <trkpt lat="48.6034" lon="1.98242">
        <ele>88.1</ele>
        <time>2018-08-16T07:46:57Z</time>
      </trkpt>
      <trkpt lat="48.60345" lon="1.98235">
        <ele>87.14</ele>
        <time>2018-08-16T07:47:06Z</time>
      </trkpt>
      <trkpt lat="48.60348" lon="1.98216">
        <ele>87.14</ele>
        <time>2018-08-16T07:47:13Z</time>
      </trkpt>
      <trkpt lat="48.60349" lon="1.98214">
        <ele>87.62</ele>
        <time>2018-08-16T07:47:14Z</time>
      </trkpt>
      <trkpt lat="48.6035" lon="1.98202">
        <ele>87.14</ele>
        <time>2018-08-16T07:47:19Z</time>
      </trkpt>
      <trkpt lat="48.60355" lon="1.98187">
        <ele>87.14</ele>
        <time>2018-08-16T07:47:27Z</time>
      </trkpt>
      <trkpt lat="48.60353" lon="1.98178">
        <ele>87.62</ele>
        <time>2018-08-16T07:47:33Z</time>
      </trkpt>
      <trkpt lat="48.60348" lon="1.98168">
        <ele>87.14</ele>
        <time>2018-08-16T07:47:39Z</time>
      </trkpt>
      <trkpt lat="48.60345" lon="1.98156">
        <ele>87.14</ele>
        <time>2018-08-16T07:47:47Z</time>
      </trkpt>
      <trkpt lat="48.60345" lon="1.98155">
        <ele>87.14</ele>
        <time>2018-08-16T07:47:55Z</time>
      </trkpt>
      <trkpt lat="48.60346" lon="1.98156">
        <ele>87.62</ele>
        <time>2018-08-16T07:48:01Z</time>
      </trkpt>
      <trkpt lat="48.6035" lon="1.98158">
        <ele>87.62</ele>
        <time>2018-08-16T07:48:11Z</time>
      </trkpt>
      <trkpt lat="48.6035" lon="1.98159">
        <ele>87.62</ele>
        <time>2018-08-16T07:48:12Z</time>
      </trkpt>
      <trkpt lat="48.60358" lon="1.98166">
        <ele>87.14</ele>
        <time>2018-08-16T07:48:21Z</time>
      </trkpt>
      <trkpt lat="48.60372" lon="1.98185">
        <ele>86.66</ele>
        <time>2018-08-16T07:48:33Z</time>
      </trkpt>
      <trkpt lat="48.60387" lon="1.982">
        <ele>86.18</ele>
        <time>2018-08-16T07:48:43Z</time>
      </trkpt>
      <trkpt lat="48.60397" lon="1.98209">
        <ele>86.18</ele>
        <time>2018-08-16T07:48:51Z</time>
      </trkpt>
      <trkpt lat="48.60409" lon="1.98224">
        <ele>85.69</ele>
        <time>2018-08-16T07:49:03Z</time>
      </trkpt>
      <trkpt lat="48.60413" lon="1.98228">
        <ele>85.69</ele>
        <time>2018-08-16T07:49:06Z</time>
      </trkpt>
      <trkpt lat="48.60429" lon="1.98243">
        <ele>85.69</ele>
        <time>2018-08-16T07:49:17Z</time>
      </trkpt>
      <trkpt lat="48.60436" lon="1.9825">
        <ele>87.14</ele>
        <time>2018-08-16T07:49:29Z</time>
      </trkpt>
      <trkpt lat="48.60445" lon="1.9826">
        <ele>86.18</ele>
        <time>2018-08-16T07:49:39Z</time>
      </trkpt>
      <trkpt lat="48.60457" lon="1.98274">
        <ele>86.66</ele>
        <time>2018-08-16T07:49:50Z</time>
      </trkpt>
      <trkpt lat="48.60471" lon="1.98287">
        <ele>87.14</ele>
        <time>2018-08-16T07:49:58Z</time>
      </trkpt>
      <trkpt lat="48.60484" lon="1.98298">
        <ele>86.66</ele>
        <time>2018-08-16T07:50:08Z</time>
      </trkpt>
      <trkpt lat="48.6049" lon="1.98304">
        <ele>86.66</ele>
        <time>2018-08-16T07:50:17Z</time>
      </trkpt>
      <trkpt lat="48.60506" lon="1.98324">
        <ele>87.14</ele>
        <time>2018-08-16T07:50:29Z</time>
      </trkpt>
      <trkpt lat="48.60518" lon="1.98334">
        <ele>87.14</ele>
        <time>2018-08-16T07:50:39Z</time>
      </trkpt>
      <trkpt lat="48.60524" lon="1.98354">
        <ele>87.14</ele>
        <time>2018-08-16T07:50:49Z</time>
      </trkpt>
      <trkpt lat="48.60528" lon="1.98356">
        <ele>87.14</ele>
        <time>2018-08-16T07:50:52Z</time>
      </trkpt>
      <trkpt lat="48.60543" lon="1.98354">
        <ele>87.62</ele>
        <time>2018-08-16T07:51:01Z</time>
      </trkpt>
      <trkpt lat="48.60558" lon="1.98345">
        <ele>88.58</ele>
        <time>2018-08-16T07:51:10Z</time>
      </trkpt>
      <trkpt lat="48.60567" lon="1.98339">
        <ele>88.1</ele>
        <time>2018-08-16T07:51:18Z</time>
      </trkpt>
      <trkpt lat="48.60579" lon="1.98333">
        <ele>88.58</ele>
        <time>2018-08-16T07:51:27Z</time>
      </trkpt>
      <trkpt lat="48.60594" lon="1.9833">
        <ele>88.58</ele>
        <time>2018-08-16T07:51:38Z</time>
      </trkpt>
      <trkpt lat="48.6061" lon="1.98324">
        <ele>88.1</ele>
        <time>2018-08-16T07:51:48Z</time>
      </trkpt>
      <trkpt lat="48.60626" lon="1.98317">
        <ele>88.1</ele>
        <time>2018-08-16T07:51:58Z</time>
      </trkpt>
      <trkpt lat="48.60642" lon="1.98306">
        <ele>87.62</ele>
        <time>2018-08-16T07:52:09Z</time>
      </trkpt>
      <trkpt lat="48.60656" lon="1.98302">
        <ele>87.62</ele>
        <time>2018-08-16T07:52:18Z</time>
      </trkpt>
      <trkpt lat="48.60664" lon="1.98299">
        <ele>87.62</ele>
        <time>2018-08-16T07:52:26Z</time>
      </trkpt>
      <trkpt lat="48.60671" lon="1.98297">
        <ele>88.1</ele>
        <time>2018-08-16T07:52:32Z</time>
      </trkpt>
      <trkpt lat="48.60682" lon="1.98288">
        <ele>88.1</ele>
        <time>2018-08-16T07:52:42Z</time>
      </trkpt>
      <trkpt lat="48.60687" lon="1.98286">
        <ele>88.1</ele>
        <time>2018-08-16T07:52:46Z</time>
      </trkpt>
      <trkpt lat="48.60699" lon="1.98278">
        <ele>88.58</ele>
        <time>2018-08-16T07:52:56Z</time>
      </trkpt>
      <trkpt lat="48.60714" lon="1.98264">
        <ele>88.58</ele>
        <time>2018-08-16T07:53:07Z</time>
      </trkpt>
      <trkpt lat="48.6073" lon="1.98248">
        <ele>89.06</ele>
        <time>2018-08-16T07:53:18Z</time>
      </trkpt>
      <trkpt lat="48.60738" lon="1.98229">
        <ele>89.06</ele>
        <time>2018-08-16T07:53:28Z</time>
      </trkpt>
      <trkpt lat="48.60746" lon="1.98207">
        <ele>89.54</ele>
        <time>2018-08-16T07:53:40Z</time>
      </trkpt>
      <trkpt lat="48.60752" lon="1.98194">
        <ele>89.06</ele>
        <time>2018-08-16T07:53:49Z</time>
      </trkpt>
      <trkpt lat="48.60759" lon="1.98178">
        <ele>89.06</ele>
        <time>2018-08-16T07:53:58Z</time>
      </trkpt>
      <trkpt lat="48.60766" lon="1.98159">
        <ele>89.06</ele>
        <time>2018-08-16T07:54:08Z</time>
      </trkpt>
      <trkpt lat="48.60771" lon="1.98139">
        <ele>89.54</ele>
        <time>2018-08-16T07:54:17Z</time>
      </trkpt>
      <trkpt lat="48.60775" lon="1.98118">
        <ele>89.54</ele>
        <time>2018-08-16T07:54:26Z</time>
      </trkpt>
      <trkpt lat="48.60777" lon="1.98112">
        <ele>89.06</ele>
        <time>2018-08-16T07:54:29Z</time>
      </trkpt>
      <trkpt lat="48.60779" lon="1.981">
        <ele>89.54</ele>
        <time>2018-08-16T07:54:33Z</time>
      </trkpt>
      <trkpt lat="48.60787" lon="1.98077">
        <ele>89.06</ele>
        <time>2018-08-16T07:54:43Z</time>
      </trkpt>
      <trkpt lat="48.6079" lon="1.9806">
        <ele>89.54</ele>
        <time>2018-08-16T07:54:52Z</time>
      </trkpt>
      <trkpt lat="48.60794" lon="1.98038">
        <ele>89.54</ele>
        <time>2018-08-16T07:55:02Z</time>
      </trkpt>
      <trkpt lat="48.60798" lon="1.98008">
        <ele>89.54</ele>
        <time>2018-08-16T07:55:14Z</time>
      </trkpt>
      <trkpt lat="48.60805" lon="1.97982">
        <ele>90.02</ele>
        <time>2018-08-16T07:55:25Z</time>
      </trkpt>
      <trkpt lat="48.60806" lon="1.97972">
        <ele>89.54</ele>
        <time>2018-08-16T07:55:30Z</time>
      </trkpt>
      <trkpt lat="48.60801" lon="1.97959">
        <ele>90.02</ele>
        <time>2018-08-16T07:55:39Z</time>
      </trkpt>
      <trkpt lat="48.60789" lon="1.97957">
        <ele>90.02</ele>
        <time>2018-08-16T07:55:47Z</time>
      </trkpt>
      <trkpt lat="48.60774" lon="1.97947">
        <ele>90.98</ele>
        <time>2018-08-16T07:55:59Z</time>
      </trkpt>
      <trkpt lat="48.60764" lon="1.97937">
        <ele>90.98</ele>
        <time>2018-08-16T07:56:08Z</time>
      </trkpt>
      <trkpt lat="48.60753" lon="1.97925">
        <ele>91.46</ele>
        <time>2018-08-16T07:56:17Z</time>
      </trkpt>
      <trkpt lat="48.60739" lon="1.97909">
        <ele>91.46</ele>
        <time>2018-08-16T07:56:28Z</time>
      </trkpt>
      <trkpt lat="48.60728" lon="1.97898">
        <ele>91.94</ele>
        <time>2018-08-16T07:56:36Z</time>
      </trkpt>
      <trkpt lat="48.60715" lon="1.97886">
        <ele>92.42</ele>
        <time>2018-08-16T07:56:47Z</time>
      </trkpt>
      <trkpt lat="48.60705" lon="1.97874">
        <ele>91.94</ele>
        <time>2018-08-16T07:56:55Z</time>
      </trkpt>
      <trkpt lat="48.60694" lon="1.97864">
        <ele>91.94</ele>
        <time>2018-08-16T07:57:04Z</time>
      </trkpt>
      <trkpt lat="48.60679" lon="1.9785">
        <ele>92.42</ele>
        <time>2018-08-16T07:57:15Z</time>
      </trkpt>
      <trkpt lat="48.60668" lon="1.97841">
        <ele>91.94</ele>
        <time>2018-08-16T07:57:22Z</time>
      </trkpt>
      <trkpt lat="48.60656" lon="1.97828">
        <ele>92.42</ele>
        <time>2018-08-16T07:57:31Z</time>
      </trkpt>
      <trkpt lat="48.60648" lon="1.97819">
        <ele>92.42</ele>
        <time>2018-08-16T07:57:40Z</time>
      </trkpt>
      <trkpt lat="48.60635" lon="1.97807">
        <ele>92.42</ele>
        <time>2018-08-16T07:57:51Z</time>
      </trkpt>
      <trkpt lat="48.60622" lon="1.97794">
        <ele>92.9</ele>
        <time>2018-08-16T07:58:00Z</time>
      </trkpt>
      <trkpt lat="48.60613" lon="1.97784">
        <ele>92.9</ele>
        <time>2018-08-16T07:58:07Z</time>
      </trkpt>
      <trkpt lat="48.60602" lon="1.97772">
        <ele>93.39</ele>
        <time>2018-08-16T07:58:17Z</time>
      </trkpt>
      <trkpt lat="48.60588" lon="1.97756">
        <ele>93.87</ele>
        <time>2018-08-16T07:58:28Z</time>
      </trkpt>
      <trkpt lat="48.60582" lon="1.97748">
        <ele>93.87</ele>
        <time>2018-08-16T07:58:33Z</time>
      </trkpt>
      <trkpt lat="48.60568" lon="1.97736">
        <ele>94.35</ele>
        <time>2018-08-16T07:58:43Z</time>
      </trkpt>
      <trkpt lat="48.60558" lon="1.97725">
        <ele>94.35</ele>
        <time>2018-08-16T07:58:51Z</time>
      </trkpt>
      <trkpt lat="48.60547" lon="1.97717">
        <ele>95.31</ele>
        <time>2018-08-16T07:58:59Z</time>
      </trkpt>
      <trkpt lat="48.6054" lon="1.97709">
        <ele>95.31</ele>
        <time>2018-08-16T07:59:05Z</time>
      </trkpt>
      <trkpt lat="48.60531" lon="1.97695">
        <ele>95.79</ele>
        <time>2018-08-16T07:59:14Z</time>
      </trkpt>
      <trkpt lat="48.60518" lon="1.97683">
        <ele>96.75</ele>
        <time>2018-08-16T07:59:25Z</time>
      </trkpt>
      <trkpt lat="48.60506" lon="1.97674">
        <ele>97.23</ele>
        <time>2018-08-16T07:59:34Z</time>
      </trkpt>
      <trkpt lat="48.60492" lon="1.97658">
        <ele>98.19</ele>
        <time>2018-08-16T07:59:45Z</time>
      </trkpt>
      <trkpt lat="48.60481" lon="1.9765">
        <ele>98.67</ele>
        <time>2018-08-16T07:59:53Z</time>
      </trkpt>
      <trkpt lat="48.60473" lon="1.97638">
        <ele>99.15</ele>
        <time>2018-08-16T08:00:00Z</time>
      </trkpt>
      <trkpt lat="48.60459" lon="1.97625">
        <ele>99.15</ele>
        <time>2018-08-16T08:00:11Z</time>
      </trkpt>
      <trkpt lat="48.60446" lon="1.97617">
        <ele>99.63</ele>
        <time>2018-08-16T08:00:21Z</time>
      </trkpt>
      <trkpt lat="48.60432" lon="1.97602">
        <ele>100.11</ele>
        <time>2018-08-16T08:00:31Z</time>
      </trkpt>
      <trkpt lat="48.60419" lon="1.97591">
        <ele>100.11</ele>
        <time>2018-08-16T08:00:41Z</time>
      </trkpt>
      <trkpt lat="48.60403" lon="1.97575">
        <ele>100.6</ele>
        <time>2018-08-16T08:00:53Z</time>
      </trkpt>
      <trkpt lat="48.60391" lon="1.9756">
        <ele>101.56</ele>
        <time>2018-08-16T08:01:04Z</time>
      </trkpt>
      <trkpt lat="48.60381" lon="1.9755">
        <ele>101.56</ele>
        <time>2018-08-16T08:01:12Z</time>
      </trkpt>
      <trkpt lat="48.6037" lon="1.9754">
        <ele>103</ele>
        <time>2018-08-16T08:01:21Z</time>
      </trkpt>
      <trkpt lat="48.6036" lon="1.97528">
        <ele>103.48</ele>
        <time>2018-08-16T08:01:30Z</time>
      </trkpt>
      <trkpt lat="48.60348" lon="1.97515">
        <ele>103.48</ele>
        <time>2018-08-16T08:01:40Z</time>
      </trkpt>
      <trkpt lat="48.60336" lon="1.97501">
        <ele>103.96</ele>
        <time>2018-08-16T08:01:50Z</time>
      </trkpt>
      <trkpt lat="48.60319" lon="1.97488">
        <ele>105.4</ele>
        <time>2018-08-16T08:02:02Z</time>
      </trkpt>
      <trkpt lat="48.60311" lon="1.97479">
        <ele>105.88</ele>
        <time>2018-08-16T08:02:09Z</time>
      </trkpt>
      <trkpt lat="48.60301" lon="1.97465">
        <ele>107.81</ele>
        <time>2018-08-16T08:02:19Z</time>
      </trkpt>
      <trkpt lat="48.60288" lon="1.97453">
        <ele>110.21</ele>
        <time>2018-08-16T08:02:29Z</time>
      </trkpt>
      <trkpt lat="48.60281" lon="1.97446">
        <ele>111.17</ele>
        <time>2018-08-16T08:02:37Z</time>
      </trkpt>
      <trkpt lat="48.60276" lon="1.97438">
        <ele>113.57</ele>
        <time>2018-08-16T08:02:42Z</time>
      </trkpt>
      <trkpt lat="48.60268" lon="1.97427">
        <ele>115.01</ele>
        <time>2018-08-16T08:02:52Z</time>
      </trkpt>
      <trkpt lat="48.60258" lon="1.9742">
        <ele>118.86</ele>
        <time>2018-08-16T08:03:00Z</time>
      </trkpt>
      <trkpt lat="48.60253" lon="1.97415">
        <ele>119.34</ele>
        <time>2018-08-16T08:03:06Z</time>
      </trkpt>
      <trkpt lat="48.60247" lon="1.97408">
        <ele>120.3</ele>
        <time>2018-08-16T08:03:12Z</time>
      </trkpt>
      <trkpt lat="48.60238" lon="1.97403">
        <ele>121.74</ele>
        <time>2018-08-16T08:03:19Z</time>
      </trkpt>
      <trkpt lat="48.60229" lon="1.97399">
        <ele>123.67</ele>
        <time>2018-08-16T08:03:25Z</time>
      </trkpt>
      <trkpt lat="48.60223" lon="1.97388">
        <ele>124.15</ele>
        <time>2018-08-16T08:03:31Z</time>
      </trkpt>
      <trkpt lat="48.60214" lon="1.97383">
        <ele>123.67</ele>
        <time>2018-08-16T08:03:39Z</time>
      </trkpt>
      <trkpt lat="48.60205" lon="1.97376">
        <ele>123.67</ele>
        <time>2018-08-16T08:03:50Z</time>
      </trkpt>
      <trkpt lat="48.60207" lon="1.97372">
        <ele>123.67</ele>
        <time>2018-08-16T08:04:02Z</time>
      </trkpt>
      <trkpt lat="48.60208" lon="1.97371">
        <ele>123.19</ele>
        <time>2018-08-16T08:04:18Z</time>
      </trkpt>
      <trkpt lat="48.60208" lon="1.97375">
        <ele>123.19</ele>
        <time>2018-08-16T08:04:30Z</time>
      </trkpt>
      <trkpt lat="48.60207" lon="1.97379">
        <ele>123.67</ele>
        <time>2018-08-16T08:04:41Z</time>
      </trkpt>
      <trkpt lat="48.60207" lon="1.97382">
        <ele>123.67</ele>
        <time>2018-08-16T08:04:54Z</time>
      </trkpt>
      <trkpt lat="48.60207" lon="1.97382">
        <ele>123.67</ele>
        <time>2018-08-16T08:05:07Z</time>
      </trkpt>
      <trkpt lat="48.60208" lon="1.97382">
        <ele>123.67</ele>
        <time>2018-08-16T08:05:19Z</time>
      </trkpt>
      <trkpt lat="48.60208" lon="1.9738">
        <ele>124.15</ele>
        <time>2018-08-16T08:05:27Z</time>
      </trkpt>
      <trkpt lat="48.60207" lon="1.9738">
        <ele>124.15</ele>
        <time>2018-08-16T08:05:38Z</time>
      </trkpt>
      <trkpt lat="48.60206" lon="1.97379">
        <ele>124.15</ele>
        <time>2018-08-16T08:05:54Z</time>
      </trkpt>
      <trkpt lat="48.60206" lon="1.97379">
        <ele>124.15</ele>
        <time>2018-08-16T08:06:04Z</time>
      </trkpt>
      <trkpt lat="48.60205" lon="1.97378">
        <ele>124.15</ele>
        <time>2018-08-16T08:06:12Z</time>
      </trkpt>
      <trkpt lat="48.60205" lon="1.97378">
        <ele>124.15</ele>
        <time>2018-08-16T08:06:19Z</time>
      </trkpt>
      <trkpt lat="48.60201" lon="1.97373">
        <ele>124.15</ele>
        <time>2018-08-16T08:06:26Z</time>
      </trkpt>
      <trkpt lat="48.60193" lon="1.97363">
        <ele>125.11</ele>
        <time>2018-08-16T08:06:35Z</time>
      </trkpt>
      <trkpt lat="48.60191" lon="1.97361">
        <ele>124.63</ele>
        <time>2018-08-16T08:06:37Z</time>
      </trkpt>
      <trkpt lat="48.60176" lon="1.97349">
        <ele>125.11</ele>
        <time>2018-08-16T08:06:48Z</time>
      </trkpt>
      <trkpt lat="48.60166" lon="1.97337">
        <ele>125.59</ele>
        <time>2018-08-16T08:06:57Z</time>
      </trkpt>
      <trkpt lat="48.6016" lon="1.97314">
        <ele>126.07</ele>
        <time>2018-08-16T08:07:07Z</time>
      </trkpt>
      <trkpt lat="48.60165" lon="1.97294">
        <ele>126.07</ele>
        <time>2018-08-16T08:07:17Z</time>
      </trkpt>
      <trkpt lat="48.60174" lon="1.97278">
        <ele>125.59</ele>
        <time>2018-08-16T08:07:29Z</time>
      </trkpt>
      <trkpt lat="48.60181" lon="1.9726">
        <ele>124.15</ele>
        <time>2018-08-16T08:07:40Z</time>
      </trkpt>
      <trkpt lat="48.60187" lon="1.97249">
        <ele>122.22</ele>
        <time>2018-08-16T08:07:51Z</time>
      </trkpt>
      <trkpt lat="48.60188" lon="1.97243">
        <ele>119.82</ele>
        <time>2018-08-16T08:08:00Z</time>
      </trkpt>
      <trkpt lat="48.60197" lon="1.97226">
        <ele>116.46</ele>
        <time>2018-08-16T08:08:12Z</time>
      </trkpt>
      <trkpt lat="48.60204" lon="1.97213">
        <ele>114.05</ele>
        <time>2018-08-16T08:08:22Z</time>
      </trkpt>
      <trkpt lat="48.60212" lon="1.97196">
        <ele>112.13</ele>
        <time>2018-08-16T08:08:32Z</time>
      </trkpt>
      <trkpt lat="48.60222" lon="1.97176">
        <ele>110.69</ele>
        <time>2018-08-16T08:08:43Z</time>
      </trkpt>
      <trkpt lat="48.60231" lon="1.9715">
        <ele>108.77</ele>
        <time>2018-08-16T08:08:53Z</time>
      </trkpt>
      <trkpt lat="48.60242" lon="1.97131">
        <ele>107.32</ele>
        <time>2018-08-16T08:09:03Z</time>
      </trkpt>
      <trkpt lat="48.60247" lon="1.97122">
        <ele>106.84</ele>
        <time>2018-08-16T08:09:11Z</time>
      </trkpt>
      <trkpt lat="48.60248" lon="1.97116">
        <ele>106.36</ele>
        <time>2018-08-16T08:09:14Z</time>
      </trkpt>
      <trkpt lat="48.60245" lon="1.97103">
        <ele>107.32</ele>
        <time>2018-08-16T08:09:18Z</time>
      </trkpt>
      <trkpt lat="48.60239" lon="1.97095">
        <ele>107.81</ele>
        <time>2018-08-16T08:09:25Z</time>
      </trkpt>
      <trkpt lat="48.60229" lon="1.97086">
        <ele>108.29</ele>
        <time>2018-08-16T08:09:38Z</time>
      </trkpt>
      <trkpt lat="48.60214" lon="1.97078">
        <ele>109.25</ele>
        <time>2018-08-16T08:09:49Z</time>
      </trkpt>
      <trkpt lat="48.60199" lon="1.97074">
        <ele>111.17</ele>
        <time>2018-08-16T08:09:58Z</time>
      </trkpt>
      <trkpt lat="48.60198" lon="1.97073">
        <ele>111.17</ele>
        <time>2018-08-16T08:09:59Z</time>
      </trkpt>
      <trkpt lat="48.60184" lon="1.97072">
        <ele>111.65</ele>
        <time>2018-08-16T08:10:09Z</time>
      </trkpt>
      <trkpt lat="48.60173" lon="1.97073">
        <ele>113.09</ele>
        <time>2018-08-16T08:10:16Z</time>
      </trkpt>
      <trkpt lat="48.60161" lon="1.97072">
        <ele>113.09</ele>
        <time>2018-08-16T08:10:24Z</time>
      </trkpt>
      <trkpt lat="48.60157" lon="1.97072">
        <ele>114.05</ele>
        <time>2018-08-16T08:10:27Z</time>
      </trkpt>
      <trkpt lat="48.60149" lon="1.97072">
        <ele>115.01</ele>
        <time>2018-08-16T08:10:35Z</time>
      </trkpt>
      <trkpt lat="48.6014" lon="1.97068">
        <ele>115.98</ele>
        <time>2018-08-16T08:10:43Z</time>
      </trkpt>
      <trkpt lat="48.6013" lon="1.97069">
        <ele>116.46</ele>
        <time>2018-08-16T08:10:50Z</time>
      </trkpt>
      <trkpt lat="48.60127" lon="1.97068">
        <ele>115.98</ele>
        <time>2018-08-16T08:10:52Z</time>
      </trkpt>
      <trkpt lat="48.6012" lon="1.97079">
        <ele>117.9</ele>
        <time>2018-08-16T08:11:02Z</time>
      </trkpt>
      <trkpt lat="48.6012" lon="1.97091">
        <ele>117.42</ele>
        <time>2018-08-16T08:11:11Z</time>
      </trkpt>
      <trkpt lat="48.60116" lon="1.971">
        <ele>119.34</ele>
        <time>2018-08-16T08:11:21Z</time>
      </trkpt>
      <trkpt lat="48.60118" lon="1.97114">
        <ele>119.34</ele>
        <time>2018-08-16T08:11:30Z</time>
      </trkpt>
      <trkpt lat="48.60124" lon="1.97127">
        <ele>118.86</ele>
        <time>2018-08-16T08:11:39Z</time>
      </trkpt>
      <trkpt lat="48.60123" lon="1.97144">
        <ele>119.34</ele>
        <time>2018-08-16T08:11:46Z</time>
      </trkpt>
      <trkpt lat="48.60121" lon="1.97146">
        <ele>118.86</ele>
        <time>2018-08-16T08:11:47Z</time>
      </trkpt>
      <trkpt lat="48.60114" lon="1.97163">
        <ele>119.34</ele>
        <time>2018-08-16T08:11:55Z</time>
      </trkpt>
      <trkpt lat="48.60098" lon="1.97183">
        <ele>119.82</ele>
        <time>2018-08-16T08:12:06Z</time>
      </trkpt>
      <trkpt lat="48.60088" lon="1.97188">
        <ele>119.34</ele>
        <time>2018-08-16T08:12:14Z</time>
      </trkpt>
      <trkpt lat="48.60077" lon="1.97205">
        <ele>120.3</ele>
        <time>2018-08-16T08:12:24Z</time>
      </trkpt>
      <trkpt lat="48.60069" lon="1.97209">
        <ele>119.34</ele>
        <time>2018-08-16T08:12:31Z</time>
      </trkpt>
      <trkpt lat="48.60057" lon="1.9721">
        <ele>119.82</ele>
        <time>2018-08-16T08:12:41Z</time>
      </trkpt>
      <trkpt lat="48.60054" lon="1.97209">
        <ele>119.82</ele>
        <time>2018-08-16T08:12:43Z</time>
      </trkpt>
      <trkpt lat="48.60032" lon="1.97192">
        <ele>119.82</ele>
        <time>2018-08-16T08:12:54Z</time>
      </trkpt>
      <trkpt lat="48.60011" lon="1.9718">
        <ele>119.82</ele>
        <time>2018-08-16T08:13:04Z</time>
      </trkpt>
      <trkpt lat="48.59994" lon="1.97172">
        <ele>118.86</ele>
        <time>2018-08-16T08:13:12Z</time>
      </trkpt>
      <trkpt lat="48.59971" lon="1.97164">
        <ele>117.9</ele>
        <time>2018-08-16T08:13:24Z</time>
      </trkpt>
      <trkpt lat="48.59957" lon="1.97178">
        <ele>116.46</ele>
        <time>2018-08-16T08:13:35Z</time>
      </trkpt>
      <trkpt lat="48.59949" lon="1.97184">
        <ele>115.98</ele>
        <time>2018-08-16T08:13:45Z</time>
      </trkpt>
      <trkpt lat="48.59938" lon="1.97182">
        <ele>115.01</ele>
        <time>2018-08-16T08:13:57Z</time>
      </trkpt>
      <trkpt lat="48.59928" lon="1.97181">
        <ele>114.53</ele>
        <time>2018-08-16T08:14:06Z</time>
      </trkpt>
      <trkpt lat="48.59919" lon="1.97182">
        <ele>114.53</ele>
        <time>2018-08-16T08:14:15Z</time>
      </trkpt>
      <trkpt lat="48.59905" lon="1.97183">
        <ele>114.53</ele>
        <time>2018-08-16T08:14:26Z</time>
      </trkpt>
      <trkpt lat="48.59886" lon="1.97194">
        <ele>114.05</ele>
        <time>2018-08-16T08:14:36Z</time>
      </trkpt>
      <trkpt lat="48.59869" lon="1.97197">
        <ele>114.53</ele>
        <time>2018-08-16T08:14:45Z</time>
      </trkpt>
      <trkpt lat="48.59846" lon="1.97196">
        <ele>114.53</ele>
        <time>2018-08-16T08:14:56Z</time>
      </trkpt>
      <trkpt lat="48.5983" lon="1.97201">
        <ele>115.01</ele>
        <time>2018-08-16T08:15:04Z</time>
      </trkpt>
      <trkpt lat="48.59827" lon="1.97228">
        <ele>114.05</ele>
        <time>2018-08-16T08:15:12Z</time>
      </trkpt>
      <trkpt lat="48.59815" lon="1.97225">
        <ele>114.53</ele>
        <time>2018-08-16T08:15:22Z</time>
      </trkpt>
      <trkpt lat="48.59803" lon="1.97228">
        <ele>114.53</ele>
        <time>2018-08-16T08:15:32Z</time>
      </trkpt>
      <trkpt lat="48.59783" lon="1.97227">
        <ele>114.53</ele>
        <time>2018-08-16T08:15:41Z</time>
      </trkpt>
      <trkpt lat="48.59773" lon="1.97226">
        <ele>114.53</ele>
        <time>2018-08-16T08:15:47Z</time>
      </trkpt>
      <trkpt lat="48.59755" lon="1.97229">
        <ele>114.05</ele>
        <time>2018-08-16T08:16:00Z</time>
      </trkpt>
      <trkpt lat="48.59746" lon="1.97228">
        <ele>113.57</ele>
        <time>2018-08-16T08:16:10Z</time>
      </trkpt>
      <trkpt lat="48.59738" lon="1.97232">
        <ele>112.61</ele>
        <time>2018-08-16T08:16:20Z</time>
      </trkpt>
      <trkpt lat="48.59726" lon="1.97236">
        <ele>112.61</ele>
        <time>2018-08-16T08:16:30Z</time>
      </trkpt>
      <trkpt lat="48.59711" lon="1.97248">
        <ele>113.57</ele>
        <time>2018-08-16T08:16:39Z</time>
      </trkpt>
      <trkpt lat="48.59694" lon="1.97256">
        <ele>113.09</ele>
        <time>2018-08-16T08:16:48Z</time>
      </trkpt>
      <trkpt lat="48.59678" lon="1.97268">
        <ele>113.57</ele>
        <time>2018-08-16T08:16:58Z</time>
      </trkpt>
      <trkpt lat="48.59665" lon="1.97275">
        <ele>114.53</ele>
        <time>2018-08-16T08:17:06Z</time>
      </trkpt>
      <trkpt lat="48.59657" lon="1.9728">
        <ele>115.98</ele>
        <time>2018-08-16T08:17:12Z</time>
      </trkpt>
      <trkpt lat="48.5965" lon="1.97286">
        <ele>115.5</ele>
        <time>2018-08-16T08:17:16Z</time>
      </trkpt>
      <trkpt lat="48.59633" lon="1.97301">
        <ele>116.46</ele>
        <time>2018-08-16T08:17:26Z</time>
      </trkpt>
      <trkpt lat="48.5962" lon="1.97308">
        <ele>117.42</ele>
        <time>2018-08-16T08:17:35Z</time>
      </trkpt>
      <trkpt lat="48.59605" lon="1.97321">
        <ele>117.42</ele>
        <time>2018-08-16T08:17:46Z</time>
      </trkpt>
      <trkpt lat="48.59591" lon="1.97327">
        <ele>117.9</ele>
        <time>2018-08-16T08:17:55Z</time>
      </trkpt>
      <trkpt lat="48.59584" lon="1.97329">
        <ele>118.38</ele>
        <time>2018-08-16T08:18:02Z</time>
      </trkpt>
      <trkpt lat="48.59573" lon="1.9733">
        <ele>117.42</ele>
        <time>2018-08-16T08:18:11Z</time>
      </trkpt>
      <trkpt lat="48.59565" lon="1.97333">
        <ele>117.9</ele>
        <time>2018-08-16T08:18:20Z</time>
      </trkpt>
      <trkpt lat="48.59549" lon="1.97342">
        <ele>118.38</ele>
        <time>2018-08-16T08:18:30Z</time>
      </trkpt>
      <trkpt lat="48.59534" lon="1.97353">
        <ele>119.82</ele>
        <time>2018-08-16T08:18:40Z</time>
      </trkpt>
      <trkpt lat="48.59529" lon="1.97358">
        <ele>120.3</ele>
        <time>2018-08-16T08:18:49Z</time>
      </trkpt>
      <trkpt lat="48.59526" lon="1.97363">
        <ele>120.3</ele>
        <time>2018-08-16T08:19:01Z</time>
      </trkpt>
      <trkpt lat="48.59522" lon="1.97365">
        <ele>118.38</ele>
        <time>2018-08-16T08:19:19Z</time>
      </trkpt>
      <trkpt lat="48.59522" lon="1.97364">
        <ele>123.19</ele>
        <time>2018-08-16T08:19:22Z</time>
      </trkpt>
      <trkpt lat="48.59522" lon="1.97365">
        <ele>120.3</ele>
        <time>2018-08-16T08:19:24Z</time>
      </trkpt>
      <trkpt lat="48.59522" lon="1.97365">
        <ele>119.82</ele>
        <time>2018-08-16T08:19:25Z</time>
      </trkpt>
      <trkpt lat="48.59523" lon="1.97365">
        <ele>119.82</ele>
        <time>2018-08-16T08:19:39Z</time>
      </trkpt>
      <trkpt lat="48.59523" lon="1.97364">
        <ele>120.3</ele>
        <time>2018-08-16T08:19:50Z</time>
      </trkpt>
      <trkpt lat="48.5953" lon="1.9737">
        <ele>120.78</ele>
        <time>2018-08-16T08:19:59Z</time>
      </trkpt>
      <trkpt lat="48.59566" lon="1.97382">
        <ele>120.78</ele>
        <time>2018-08-16T08:20:15Z</time>
      </trkpt>
      <trkpt lat="48.59574" lon="1.97382">
        <ele>120.78</ele>
        <time>2018-08-16T08:20:26Z</time>
      </trkpt>
      <trkpt lat="48.59579" lon="1.97384">
        <ele>120.78</ele>
        <time>2018-08-16T08:20:32Z</time>
      </trkpt>
      <trkpt lat="48.59585" lon="1.97382">
        <ele>120.78</ele>
        <time>2018-08-16T08:20:37Z</time>
      </trkpt>
      <trkpt lat="48.59586" lon="1.9737">
        <ele>120.3</ele>
        <time>2018-08-16T08:20:45Z</time>
      </trkpt>
      <trkpt lat="48.59599" lon="1.97367">
        <ele>121.26</ele>
        <time>2018-08-16T08:20:52Z</time>
      </trkpt>
      <trkpt lat="48.5961" lon="1.97372">
        <ele>121.26</ele>
        <time>2018-08-16T08:20:56Z</time>
      </trkpt>
      <trkpt lat="48.59611" lon="1.97372">
        <ele>121.74</ele>
        <time>2018-08-16T08:20:58Z</time>
      </trkpt>
      <trkpt lat="48.59621" lon="1.97375">
        <ele>121.74</ele>
        <time>2018-08-16T08:21:01Z</time>
      </trkpt>
      <trkpt lat="48.59636" lon="1.97376">
        <ele>123.19</ele>
        <time>2018-08-16T08:21:09Z</time>
      </trkpt>
      <trkpt lat="48.59636" lon="1.97372">
        <ele>123.67</ele>
        <time>2018-08-16T08:21:11Z</time>
      </trkpt>
      <trkpt lat="48.59643" lon="1.97374">
        <ele>123.67</ele>
        <time>2018-08-16T08:21:14Z</time>
      </trkpt>
      <trkpt lat="48.59652" lon="1.97375">
        <ele>124.15</ele>
        <time>2018-08-16T08:21:19Z</time>
      </trkpt>
      <trkpt lat="48.59661" lon="1.97365">
        <ele>124.63</ele>
        <time>2018-08-16T08:21:28Z</time>
      </trkpt>
      <trkpt lat="48.59674" lon="1.97364">
        <ele>124.15</ele>
        <time>2018-08-16T08:21:36Z</time>
      </trkpt>
      <trkpt lat="48.59675" lon="1.97361">
        <ele>123.67</ele>
        <time>2018-08-16T08:21:39Z</time>
      </trkpt>
      <trkpt lat="48.59679" lon="1.97349">
        <ele>122.71</ele>
        <time>2018-08-16T08:21:47Z</time>
      </trkpt>
      <trkpt lat="48.59678" lon="1.97345">
        <ele>122.71</ele>
        <time>2018-08-16T08:21:49Z</time>
      </trkpt>
      <trkpt lat="48.59677" lon="1.97337">
        <ele>122.22</ele>
        <time>2018-08-16T08:21:53Z</time>
      </trkpt>
      <trkpt lat="48.59683" lon="1.97315">
        <ele>121.26</ele>
        <time>2018-08-16T08:22:03Z</time>
      </trkpt>
      <trkpt lat="48.5969" lon="1.97306">
        <ele>121.26</ele>
        <time>2018-08-16T08:22:09Z</time>
      </trkpt>
      <trkpt lat="48.5969" lon="1.97303">
        <ele>120.78</ele>
        <time>2018-08-16T08:22:11Z</time>
      </trkpt>
      <trkpt lat="48.5959" lon="1.97178">
        <ele>120.3</ele>
        <time>2018-08-16T08:22:20Z</time>
      </trkpt>
      <trkpt lat="48.5972" lon="1.97268">
        <ele>120.3</ele>
        <time>2018-08-16T08:22:27Z</time>
      </trkpt>
      <trkpt lat="48.59729" lon="1.97276">
        <ele>120.3</ele>
        <time>2018-08-16T08:22:29Z</time>
      </trkpt>
      <trkpt lat="48.59742" lon="1.97279">
        <ele>120.3</ele>
        <time>2018-08-16T08:22:34Z</time>
      </trkpt>
      <trkpt lat="48.59746" lon="1.97278">
        <ele>120.3</ele>
        <time>2018-08-16T08:22:36Z</time>
      </trkpt>
      <trkpt lat="48.59762" lon="1.9728">
        <ele>120.3</ele>
        <time>2018-08-16T08:22:43Z</time>
      </trkpt>
      <trkpt lat="48.59764" lon="1.9728">
        <ele>119.82</ele>
        <time>2018-08-16T08:22:45Z</time>
      </trkpt>
      <trkpt lat="48.59773" lon="1.97273">
        <ele>119.82</ele>
        <time>2018-08-16T08:22:52Z</time>
      </trkpt>
      <trkpt lat="48.59787" lon="1.97274">
        <ele>119.82</ele>
        <time>2018-08-16T08:23:00Z</time>
      </trkpt>
      <trkpt lat="48.59794" lon="1.9727">
        <ele>118.86</ele>
        <time>2018-08-16T08:23:05Z</time>
      </trkpt>
      <trkpt lat="48.598" lon="1.97268">
        <ele>118.86</ele>
        <time>2018-08-16T08:23:08Z</time>
      </trkpt>
      <trkpt lat="48.59814" lon="1.97265">
        <ele>118.86</ele>
        <time>2018-08-16T08:23:17Z</time>
      </trkpt>
      <trkpt lat="48.59817" lon="1.97261">
        <ele>118.86</ele>
        <time>2018-08-16T08:23:22Z</time>
      </trkpt>
      <trkpt lat="48.59821" lon="1.97261">
        <ele>118.38</ele>
        <time>2018-08-16T08:23:26Z</time>
      </trkpt>
      <trkpt lat="48.59826" lon="1.97257">
        <ele>118.86</ele>
        <time>2018-08-16T08:23:36Z</time>
      </trkpt>
      <trkpt lat="48.59835" lon="1.97247">
        <ele>119.82</ele>
        <time>2018-08-16T08:23:44Z</time>
      </trkpt>
      <trkpt lat="48.59846" lon="1.97237">
        <ele>120.3</ele>
        <time>2018-08-16T08:23:52Z</time>
      </trkpt>
      <trkpt lat="48.59852" lon="1.97226">
        <ele>121.26</ele>
        <time>2018-08-16T08:24:00Z</time>
      </trkpt>
      <trkpt lat="48.59855" lon="1.97224">
        <ele>121.26</ele>
        <time>2018-08-16T08:24:05Z</time>
      </trkpt>
      <trkpt lat="48.59857" lon="1.97222">
        <ele>121.74</ele>
        <time>2018-08-16T08:24:07Z</time>
      </trkpt>
      <trkpt lat="48.59687" lon="1.96992">
        <ele>122.22</ele>
        <time>2018-08-16T08:24:16Z</time>
      </trkpt>
      <trkpt lat="48.59734" lon="1.97038">
        <ele>122.71</ele>
        <time>2018-08-16T08:24:19Z</time>
      </trkpt>
      <trkpt lat="48.59755" lon="1.97035">
        <ele>123.19</ele>
        <time>2018-08-16T08:24:28Z</time>
      </trkpt>
      <trkpt lat="48.59751" lon="1.97029">
        <ele>122.71</ele>
        <time>2018-08-16T08:24:32Z</time>
      </trkpt>
      <trkpt lat="48.59746" lon="1.97003">
        <ele>124.63</ele>
        <time>2018-08-16T08:24:41Z</time>
      </trkpt>
      <trkpt lat="48.59738" lon="1.96987">
        <ele>125.11</ele>
        <time>2018-08-16T08:24:50Z</time>
      </trkpt>
      <trkpt lat="48.59737" lon="1.96977">
        <ele>126.55</ele>
        <time>2018-08-16T08:24:57Z</time>
      </trkpt>
      <trkpt lat="48.59739" lon="1.96952">
        <ele>127.03</ele>
        <time>2018-08-16T08:25:07Z</time>
      </trkpt>
      <trkpt lat="48.59744" lon="1.9693">
        <ele>128.47</ele>
        <time>2018-08-16T08:25:18Z</time>
      </trkpt>
      <trkpt lat="48.59744" lon="1.96922">
        <ele>128.47</ele>
        <time>2018-08-16T08:25:24Z</time>
      </trkpt>
      <trkpt lat="48.59745" lon="1.96908">
        <ele>128.95</ele>
        <time>2018-08-16T08:25:32Z</time>
      </trkpt>
      <trkpt lat="48.59749" lon="1.96896">
        <ele>130.4</ele>
        <time>2018-08-16T08:25:41Z</time>
      </trkpt>
      <trkpt lat="48.59756" lon="1.96881">
        <ele>130.88</ele>
        <time>2018-08-16T08:25:50Z</time>
      </trkpt>
      <trkpt lat="48.59761" lon="1.96863">
        <ele>132.32</ele>
        <time>2018-08-16T08:25:58Z</time>
      </trkpt>
      <trkpt lat="48.59766" lon="1.9685">
        <ele>132.8</ele>
        <time>2018-08-16T08:26:05Z</time>
      </trkpt>
      <trkpt lat="48.59771" lon="1.96835">
        <ele>135.2</ele>
        <time>2018-08-16T08:26:14Z</time>
      </trkpt>
      <trkpt lat="48.59779" lon="1.9682">
        <ele>136.16</ele>
        <time>2018-08-16T08:26:23Z</time>
      </trkpt>
      <trkpt lat="48.59783" lon="1.96814">
        <ele>137.61</ele>
        <time>2018-08-16T08:26:28Z</time>
      </trkpt>
      <trkpt lat="48.59792" lon="1.968">
        <ele>139.53</ele>
        <time>2018-08-16T08:26:37Z</time>
      </trkpt>
      <trkpt lat="48.59797" lon="1.96786">
        <ele>140.97</ele>
        <time>2018-08-16T08:26:44Z</time>
      </trkpt>
      <trkpt lat="48.59802" lon="1.96775">
        <ele>141.45</ele>
        <time>2018-08-16T08:26:51Z</time>
      </trkpt>
      <trkpt lat="48.59807" lon="1.96765">
        <ele>141.93</ele>
        <time>2018-08-16T08:26:58Z</time>
      </trkpt>
      <trkpt lat="48.59807" lon="1.96764">
        <ele>141.93</ele>
        <time>2018-08-16T08:26:59Z</time>
      </trkpt>
      <trkpt lat="48.59814" lon="1.96751">
        <ele>142.41</ele>
        <time>2018-08-16T08:27:08Z</time>
      </trkpt>
      <trkpt lat="48.59818" lon="1.96738">
        <ele>142.89</ele>
        <time>2018-08-16T08:27:17Z</time>
      </trkpt>
      <trkpt lat="48.59819" lon="1.96736">
        <ele>142.89</ele>
        <time>2018-08-16T08:27:27Z</time>
      </trkpt>
      <trkpt lat="48.5982" lon="1.96733">
        <ele>143.37</ele>
        <time>2018-08-16T08:27:43Z</time>
      </trkpt>
      <trkpt lat="48.5982" lon="1.96733">
        <ele>142.89</ele>
        <time>2018-08-16T08:27:47Z</time>
      </trkpt>
      <trkpt lat="48.59825" lon="1.96728">
        <ele>143.37</ele>
        <time>2018-08-16T08:27:51Z</time>
      </trkpt>
      <trkpt lat="48.59833" lon="1.96714">
        <ele>143.37</ele>
        <time>2018-08-16T08:28:00Z</time>
      </trkpt>
      <trkpt lat="48.5984" lon="1.96701">
        <ele>143.37</ele>
        <time>2018-08-16T08:28:07Z</time>
      </trkpt>
      <trkpt lat="48.59843" lon="1.96693">
        <ele>143.37</ele>
        <time>2018-08-16T08:28:12Z</time>
      </trkpt>
      <trkpt lat="48.59848" lon="1.96679">
        <ele>143.37</ele>
        <time>2018-08-16T08:28:21Z</time>
      </trkpt>
      <trkpt lat="48.5985" lon="1.96675">
        <ele>143.37</ele>
        <time>2018-08-16T08:28:24Z</time>
      </trkpt>
      <trkpt lat="48.5986" lon="1.96658">
        <ele>143.37</ele>
        <time>2018-08-16T08:28:33Z</time>
      </trkpt>
      <trkpt lat="48.59869" lon="1.96642">
        <ele>142.89</ele>
        <time>2018-08-16T08:28:42Z</time>
      </trkpt>
      <trkpt lat="48.59878" lon="1.96624">
        <ele>142.41</ele>
        <time>2018-08-16T08:28:51Z</time>
      </trkpt>
      <trkpt lat="48.59885" lon="1.96612">
        <ele>141.93</ele>
        <time>2018-08-16T08:28:59Z</time>
      </trkpt>
      <trkpt lat="48.5989" lon="1.96601">
        <ele>141.93</ele>
        <time>2018-08-16T08:29:05Z</time>
      </trkpt>
      <trkpt lat="48.59894" lon="1.96592">
        <ele>140.97</ele>
        <time>2018-08-16T08:29:13Z</time>
      </trkpt>
      <trkpt lat="48.599" lon="1.96581">
        <ele>139.05</ele>
        <time>2018-08-16T08:29:22Z</time>
      </trkpt>
      <trkpt lat="48.59906" lon="1.96568">
        <ele>137.13</ele>
        <time>2018-08-16T08:29:30Z</time>
      </trkpt>
      <trkpt lat="48.59914" lon="1.96555">
        <ele>135.2</ele>
        <time>2018-08-16T08:29:39Z</time>
      </trkpt>
      <trkpt lat="48.59919" lon="1.96543">
        <ele>134.72</ele>
        <time>2018-08-16T08:29:47Z</time>
      </trkpt>
      <trkpt lat="48.59926" lon="1.96528">
        <ele>133.76</ele>
        <time>2018-08-16T08:29:56Z</time>
      </trkpt>
      <trkpt lat="48.59931" lon="1.96513">
        <ele>133.28</ele>
        <time>2018-08-16T08:30:05Z</time>
      </trkpt>
      <trkpt lat="48.59935" lon="1.96501">
        <ele>132.8</ele>
        <time>2018-08-16T08:30:12Z</time>
      </trkpt>
      <trkpt lat="48.5994" lon="1.96494">
        <ele>131.84</ele>
        <time>2018-08-16T08:30:21Z</time>
      </trkpt>
      <trkpt lat="48.5994" lon="1.96487">
        <ele>131.84</ele>
        <time>2018-08-16T08:30:28Z</time>
      </trkpt>
      <trkpt lat="48.59941" lon="1.96483">
        <ele>131.84</ele>
        <time>2018-08-16T08:30:30Z</time>
      </trkpt>
      <trkpt lat="48.59942" lon="1.9648">
        <ele>131.36</ele>
        <time>2018-08-16T08:30:32Z</time>
      </trkpt>
      <trkpt lat="48.59952" lon="1.96463">
        <ele>130.88</ele>
        <time>2018-08-16T08:30:41Z</time>
      </trkpt>
      <trkpt lat="48.59959" lon="1.96451">
        <ele>130.88</ele>
        <time>2018-08-16T08:30:48Z</time>
      </trkpt>
      <trkpt lat="48.5996" lon="1.96445">
        <ele>130.88</ele>
        <time>2018-08-16T08:30:51Z</time>
      </trkpt>
      <trkpt lat="48.59965" lon="1.96435">
        <ele>131.84</ele>
        <time>2018-08-16T08:30:57Z</time>
      </trkpt>
      <trkpt lat="48.59976" lon="1.96416">
        <ele>133.28</ele>
        <time>2018-08-16T08:31:07Z</time>
      </trkpt>
      <trkpt lat="48.59978" lon="1.96413">
        <ele>133.76</ele>
        <time>2018-08-16T08:31:09Z</time>
      </trkpt>
      <trkpt lat="48.59988" lon="1.96391">
        <ele>135.2</ele>
        <time>2018-08-16T08:31:20Z</time>
      </trkpt>
      <trkpt lat="48.59993" lon="1.96379">
        <ele>136.16</ele>
        <time>2018-08-16T08:31:27Z</time>
      </trkpt>
      <trkpt lat="48.59996" lon="1.96376">
        <ele>137.61</ele>
        <time>2018-08-16T08:31:30Z</time>
      </trkpt>
      <trkpt lat="48.60002" lon="1.96364">
        <ele>138.09</ele>
        <time>2018-08-16T08:31:37Z</time>
      </trkpt>
      <trkpt lat="48.60003" lon="1.96362">
        <ele>139.05</ele>
        <time>2018-08-16T08:31:39Z</time>
      </trkpt>
      <trkpt lat="48.60005" lon="1.96359">
        <ele>139.05</ele>
        <time>2018-08-16T08:31:41Z</time>
      </trkpt>
      <trkpt lat="48.60011" lon="1.96346">
        <ele>139.53</ele>
        <time>2018-08-16T08:31:49Z</time>
      </trkpt>
      <trkpt lat="48.60014" lon="1.9634">
        <ele>139.53</ele>
        <time>2018-08-16T08:31:56Z</time>
      </trkpt>
      <trkpt lat="48.60017" lon="1.96331">
        <ele>139.53</ele>
        <time>2018-08-16T08:32:01Z</time>
      </trkpt>
      <trkpt lat="48.60022" lon="1.96322">
        <ele>139.53</ele>
        <time>2018-08-16T08:32:08Z</time>
      </trkpt>
      <trkpt lat="48.60024" lon="1.96318">
        <ele>139.05</ele>
        <time>2018-08-16T08:32:10Z</time>
      </trkpt>
      <trkpt lat="48.60027" lon="1.96307">
        <ele>138.57</ele>
        <time>2018-08-16T08:32:14Z</time>
      </trkpt>
      <trkpt lat="48.60031" lon="1.96297">
        <ele>138.09</ele>
        <time>2018-08-16T08:32:18Z</time>
      </trkpt>
      <trkpt lat="48.60038" lon="1.96282">
        <ele>138.09</ele>
        <time>2018-08-16T08:32:27Z</time>
      </trkpt>
      <trkpt lat="48.6004" lon="1.96277">
        <ele>138.09</ele>
        <time>2018-08-16T08:32:30Z</time>
      </trkpt>
      <trkpt lat="48.6005" lon="1.96263">
        <ele>139.05</ele>
        <time>2018-08-16T08:32:39Z</time>
      </trkpt>
      <trkpt lat="48.60059" lon="1.96248">
        <ele>140.01</ele>
        <time>2018-08-16T08:32:48Z</time>
      </trkpt>
      <trkpt lat="48.60065" lon="1.96236">
        <ele>139.53</ele>
        <time>2018-08-16T08:32:56Z</time>
      </trkpt>
      <trkpt lat="48.60072" lon="1.96225">
        <ele>138.57</ele>
        <time>2018-08-16T08:33:05Z</time>
      </trkpt>
      <trkpt lat="48.60073" lon="1.96223">
        <ele>138.57</ele>
        <time>2018-08-16T08:33:07Z</time>
      </trkpt>
      <trkpt lat="48.60074" lon="1.96219">
        <ele>138.09</ele>
        <time>2018-08-16T08:33:09Z</time>
      </trkpt>
      <trkpt lat="48.60082" lon="1.96203">
        <ele>135.68</ele>
        <time>2018-08-16T08:33:21Z</time>
      </trkpt>
      <trkpt lat="48.60088" lon="1.96194">
        <ele>132.8</ele>
        <time>2018-08-16T08:33:30Z</time>
      </trkpt>
      <trkpt lat="48.60093" lon="1.96186">
        <ele>130.4</ele>
        <time>2018-08-16T08:33:39Z</time>
      </trkpt>
      <trkpt lat="48.60095" lon="1.96177">
        <ele>128.95</ele>
        <time>2018-08-16T08:33:47Z</time>
      </trkpt>
      <trkpt lat="48.601" lon="1.96166">
        <ele>126.55</ele>
        <time>2018-08-16T08:33:56Z</time>
      </trkpt>
      <trkpt lat="48.60102" lon="1.9616">
        <ele>124.15</ele>
        <time>2018-08-16T08:34:05Z</time>
      </trkpt>
      <trkpt lat="48.60105" lon="1.96155">
        <ele>122.22</ele>
        <time>2018-08-16T08:34:14Z</time>
      </trkpt>
      <trkpt lat="48.60112" lon="1.96143">
        <ele>121.26</ele>
        <time>2018-08-16T08:34:21Z</time>
      </trkpt>
      <trkpt lat="48.60117" lon="1.96133">
        <ele>119.82</ele>
        <time>2018-08-16T08:34:30Z</time>
      </trkpt>
      <trkpt lat="48.60123" lon="1.96118">
        <ele>117.42</ele>
        <time>2018-08-16T08:34:40Z</time>
      </trkpt>
      <trkpt lat="48.60125" lon="1.96109">
        <ele>115.01</ele>
        <time>2018-08-16T08:34:50Z</time>
      </trkpt>
      <trkpt lat="48.60126" lon="1.96104">
        <ele>113.09</ele>
        <time>2018-08-16T08:34:57Z</time>
      </trkpt>
      <trkpt lat="48.60128" lon="1.961">
        <ele>111.17</ele>
        <time>2018-08-16T08:35:06Z</time>
      </trkpt>
      <trkpt lat="48.6013" lon="1.96093">
        <ele>110.21</ele>
        <time>2018-08-16T08:35:12Z</time>
      </trkpt>
      <trkpt lat="48.60131" lon="1.96092">
        <ele>109.73</ele>
        <time>2018-08-16T08:35:13Z</time>
      </trkpt>
      <trkpt lat="48.60138" lon="1.96083">
        <ele>109.25</ele>
        <time>2018-08-16T08:35:21Z</time>
      </trkpt>
      <trkpt lat="48.6014" lon="1.96077">
        <ele>109.25</ele>
        <time>2018-08-16T08:35:28Z</time>
      </trkpt>
      <trkpt lat="48.60141" lon="1.96074">
        <ele>109.25</ele>
        <time>2018-08-16T08:35:39Z</time>
      </trkpt>
      <trkpt lat="48.60145" lon="1.96073">
        <ele>109.25</ele>
        <time>2018-08-16T08:35:56Z</time>
      </trkpt>
      <trkpt lat="48.60146" lon="1.96068">
        <ele>109.25</ele>
        <time>2018-08-16T08:36:06Z</time>
      </trkpt>
      <trkpt lat="48.60147" lon="1.96066">
        <ele>109.73</ele>
        <time>2018-08-16T08:36:15Z</time>
      </trkpt>
      <trkpt lat="48.60147" lon="1.96063">
        <ele>109.73</ele>
        <time>2018-08-16T08:36:27Z</time>
      </trkpt>
      <trkpt lat="48.60146" lon="1.96059">
        <ele>109.73</ele>
        <time>2018-08-16T08:36:36Z</time>
      </trkpt>
      <trkpt lat="48.60146" lon="1.96056">
        <ele>110.21</ele>
        <time>2018-08-16T08:36:44Z</time>
      </trkpt>
      <trkpt lat="48.60145" lon="1.96054">
        <ele>110.21</ele>
        <time>2018-08-16T08:36:53Z</time>
      </trkpt>
      <trkpt lat="48.60146" lon="1.96052">
        <ele>110.69</ele>
        <time>2018-08-16T08:37:07Z</time>
      </trkpt>
      <trkpt lat="48.60146" lon="1.96051">
        <ele>110.21</ele>
        <time>2018-08-16T08:37:22Z</time>
      </trkpt>
      <trkpt lat="48.60146" lon="1.96052">
        <ele>110.69</ele>
        <time>2018-08-16T08:37:30Z</time>
      </trkpt>
      <trkpt lat="48.60146" lon="1.96054">
        <ele>110.69</ele>
        <time>2018-08-16T08:37:36Z</time>
      </trkpt>
      <trkpt lat="48.60147" lon="1.96053">
        <ele>110.21</ele>
        <time>2018-08-16T08:37:47Z</time>
      </trkpt>
      <trkpt lat="48.60149" lon="1.9605">
        <ele>110.21</ele>
        <time>2018-08-16T08:37:49Z</time>
      </trkpt>
      <trkpt lat="48.60156" lon="1.96028">
        <ele>110.21</ele>
        <time>2018-08-16T08:38:00Z</time>
      </trkpt>
      <trkpt lat="48.60158" lon="1.96019">
        <ele>111.65</ele>
        <time>2018-08-16T08:38:04Z</time>
      </trkpt>
      <trkpt lat="48.60168" lon="1.96006">
        <ele>112.13</ele>
        <time>2018-08-16T08:38:14Z</time>
      </trkpt>
      <trkpt lat="48.60175" lon="1.95995">
        <ele>112.61</ele>
        <time>2018-08-16T08:38:22Z</time>
      </trkpt>
      <trkpt lat="48.6018" lon="1.95986">
        <ele>112.61</ele>
        <time>2018-08-16T08:38:27Z</time>
      </trkpt>
      <trkpt lat="48.60188" lon="1.95969">
        <ele>112.13</ele>
        <time>2018-08-16T08:38:38Z</time>
      </trkpt>
      <trkpt lat="48.60195" lon="1.95954">
        <ele>110.69</ele>
        <time>2018-08-16T08:38:47Z</time>
      </trkpt>
      <trkpt lat="48.60202" lon="1.95936">
        <ele>109.73</ele>
        <time>2018-08-16T08:38:56Z</time>
      </trkpt>
      <trkpt lat="48.60208" lon="1.95923">
        <ele>108.29</ele>
        <time>2018-08-16T08:39:07Z</time>
      </trkpt>
      <trkpt lat="48.60215" lon="1.9591">
        <ele>106.84</ele>
        <time>2018-08-16T08:39:15Z</time>
      </trkpt>
      <trkpt lat="48.60223" lon="1.95893">
        <ele>104.92</ele>
        <time>2018-08-16T08:39:25Z</time>
      </trkpt>
      <trkpt lat="48.60229" lon="1.95883">
        <ele>103.96</ele>
        <time>2018-08-16T08:39:32Z</time>
      </trkpt>
      <trkpt lat="48.6023" lon="1.9588">
        <ele>103.48</ele>
        <time>2018-08-16T08:39:34Z</time>
      </trkpt>
      <trkpt lat="48.60237" lon="1.95861">
        <ele>102.52</ele>
        <time>2018-08-16T08:39:44Z</time>
      </trkpt>
      <trkpt lat="48.60246" lon="1.9585">
        <ele>102.52</ele>
        <time>2018-08-16T08:39:52Z</time>
      </trkpt>
      <trkpt lat="48.60256" lon="1.95837">
        <ele>102.04</ele>
        <time>2018-08-16T08:40:01Z</time>
      </trkpt>
      <trkpt lat="48.6026" lon="1.95823">
        <ele>101.56</ele>
        <time>2018-08-16T08:40:08Z</time>
      </trkpt>
      <trkpt lat="48.60268" lon="1.95806">
        <ele>101.08</ele>
        <time>2018-08-16T08:40:18Z</time>
      </trkpt>
      <trkpt lat="48.60276" lon="1.95794">
        <ele>100.6</ele>
        <time>2018-08-16T08:40:26Z</time>
      </trkpt>
      <trkpt lat="48.60285" lon="1.95775">
        <ele>100.6</ele>
        <time>2018-08-16T08:40:37Z</time>
      </trkpt>
      <trkpt lat="48.60295" lon="1.95757">
        <ele>100.11</ele>
        <time>2018-08-16T08:40:47Z</time>
      </trkpt>
      <trkpt lat="48.60301" lon="1.95745">
        <ele>100.11</ele>
        <time>2018-08-16T08:40:57Z</time>
      </trkpt>
      <trkpt lat="48.6031" lon="1.9573">
        <ele>99.63</ele>
        <time>2018-08-16T08:41:07Z</time>
      </trkpt>
      <trkpt lat="48.60315" lon="1.95723">
        <ele>99.15</ele>
        <time>2018-08-16T08:41:14Z</time>
      </trkpt>
      <trkpt lat="48.60325" lon="1.95694">
        <ele>99.15</ele>
        <time>2018-08-16T08:41:26Z</time>
      </trkpt>
      <trkpt lat="48.60333" lon="1.95678">
        <ele>98.67</ele>
        <time>2018-08-16T08:41:34Z</time>
      </trkpt>
      <trkpt lat="48.6034" lon="1.95663">
        <ele>99.63</ele>
        <time>2018-08-16T08:41:43Z</time>
      </trkpt>
      <trkpt lat="48.60347" lon="1.95641">
        <ele>98.19</ele>
        <time>2018-08-16T08:41:52Z</time>
      </trkpt>
      <trkpt lat="48.60355" lon="1.95626">
        <ele>99.15</ele>
        <time>2018-08-16T08:42:01Z</time>
      </trkpt>
      <trkpt lat="48.60361" lon="1.95609">
        <ele>99.63</ele>
        <time>2018-08-16T08:42:12Z</time>
      </trkpt>
      <trkpt lat="48.60365" lon="1.956">
        <ele>99.15</ele>
        <time>2018-08-16T08:42:19Z</time>
      </trkpt>
      <trkpt lat="48.60364" lon="1.95596">
        <ele>99.15</ele>
        <time>2018-08-16T08:42:22Z</time>
      </trkpt>
      <trkpt lat="48.60356" lon="1.95588">
        <ele>99.15</ele>
        <time>2018-08-16T08:42:29Z</time>
      </trkpt>
      <trkpt lat="48.60346" lon="1.95576">
        <ele>99.15</ele>
        <time>2018-08-16T08:42:40Z</time>
      </trkpt>
      <trkpt lat="48.60338" lon="1.95565">
        <ele>98.67</ele>
        <time>2018-08-16T08:42:48Z</time>
      </trkpt>
      <trkpt lat="48.60329" lon="1.95555">
        <ele>98.67</ele>
        <time>2018-08-16T08:42:58Z</time>
      </trkpt>
      <trkpt lat="48.60318" lon="1.9554">
        <ele>98.67</ele>
        <time>2018-08-16T08:43:08Z</time>
      </trkpt>
      <trkpt lat="48.60302" lon="1.95527">
        <ele>98.67</ele>
        <time>2018-08-16T08:43:16Z</time>
      </trkpt>
      <trkpt lat="48.60299" lon="1.95525">
        <ele>98.67</ele>
        <time>2018-08-16T08:43:18Z</time>
      </trkpt>
      <trkpt lat="48.60292" lon="1.95518">
        <ele>99.15</ele>
        <time>2018-08-16T08:43:25Z</time>
      </trkpt>
      <trkpt lat="48.60286" lon="1.9551">
        <ele>98.67</ele>
        <time>2018-08-16T08:43:32Z</time>
      </trkpt>
      <trkpt lat="48.60279" lon="1.95507">
        <ele>98.67</ele>
        <time>2018-08-16T08:43:39Z</time>
      </trkpt>
      <trkpt lat="48.60278" lon="1.95507">
        <ele>98.67</ele>
        <time>2018-08-16T08:43:40Z</time>
      </trkpt>
      <trkpt lat="48.60273" lon="1.95502">
        <ele>99.15</ele>
        <time>2018-08-16T08:43:44Z</time>
      </trkpt>
      <trkpt lat="48.60269" lon="1.95494">
        <ele>98.67</ele>
        <time>2018-08-16T08:43:51Z</time>
      </trkpt>
      <trkpt lat="48.60266" lon="1.95494">
        <ele>98.67</ele>
        <time>2018-08-16T08:43:58Z</time>
      </trkpt>
      <trkpt lat="48.60253" lon="1.95486">
        <ele>99.15</ele>
        <time>2018-08-16T08:44:09Z</time>
      </trkpt>
      <trkpt lat="48.60253" lon="1.95485">
        <ele>98.67</ele>
        <time>2018-08-16T08:44:10Z</time>
      </trkpt>
      <trkpt lat="48.6025" lon="1.95483">
        <ele>100.6</ele>
        <time>2018-08-16T08:44:12Z</time>
      </trkpt>
      <trkpt lat="48.60246" lon="1.95469">
        <ele>99.15</ele>
        <time>2018-08-16T08:44:21Z</time>
      </trkpt>
      <trkpt lat="48.60238" lon="1.95454">
        <ele>99.63</ele>
        <time>2018-08-16T08:44:31Z</time>
      </trkpt>
      <trkpt lat="48.60231" lon="1.95444">
        <ele>100.6</ele>
        <time>2018-08-16T08:44:42Z</time>
      </trkpt>
      <trkpt lat="48.60217" lon="1.95432">
        <ele>100.11</ele>
        <time>2018-08-16T08:44:52Z</time>
      </trkpt>
      <trkpt lat="48.60202" lon="1.95416">
        <ele>99.63</ele>
        <time>2018-08-16T08:45:02Z</time>
      </trkpt>
      <trkpt lat="48.60194" lon="1.9541">
        <ele>99.15</ele>
        <time>2018-08-16T08:45:09Z</time>
      </trkpt>
      <trkpt lat="48.6018" lon="1.954">
        <ele>99.15</ele>
        <time>2018-08-16T08:45:18Z</time>
      </trkpt>
      <trkpt lat="48.60175" lon="1.9539">
        <ele>99.15</ele>
        <time>2018-08-16T08:45:25Z</time>
      </trkpt>
      <trkpt lat="48.60173" lon="1.95388">
        <ele>99.63</ele>
        <time>2018-08-16T08:45:27Z</time>
      </trkpt>
      <trkpt lat="48.60162" lon="1.95374">
        <ele>100.11</ele>
        <time>2018-08-16T08:45:38Z</time>
      </trkpt>
      <trkpt lat="48.60161" lon="1.95373">
        <ele>100.6</ele>
        <time>2018-08-16T08:45:39Z</time>
      </trkpt>
      <trkpt lat="48.60144" lon="1.95359">
        <ele>100.6</ele>
        <time>2018-08-16T08:45:51Z</time>
      </trkpt>
      <trkpt lat="48.60131" lon="1.95348">
        <ele>100.6</ele>
        <time>2018-08-16T08:46:01Z</time>
      </trkpt>
      <trkpt lat="48.60123" lon="1.95332">
        <ele>100.6</ele>
        <time>2018-08-16T08:46:12Z</time>
      </trkpt>
      <trkpt lat="48.60114" lon="1.95322">
        <ele>101.56</ele>
        <time>2018-08-16T08:46:19Z</time>
      </trkpt>
      <trkpt lat="48.60105" lon="1.95308">
        <ele>102.04</ele>
        <time>2018-08-16T08:46:28Z</time>
      </trkpt>
      <trkpt lat="48.60095" lon="1.95302">
        <ele>102.04</ele>
        <time>2018-08-16T08:46:36Z</time>
      </trkpt>
      <trkpt lat="48.6008" lon="1.95285">
        <ele>101.56</ele>
        <time>2018-08-16T08:46:47Z</time>
      </trkpt>
      <trkpt lat="48.60076" lon="1.95287">
        <ele>101.56</ele>
        <time>2018-08-16T08:46:55Z</time>
      </trkpt>
      <trkpt lat="48.60069" lon="1.95303">
        <ele>100.6</ele>
        <time>2018-08-16T08:47:07Z</time>
      </trkpt>
      <trkpt lat="48.60058" lon="1.95312">
        <ele>101.08</ele>
        <time>2018-08-16T08:47:16Z</time>
      </trkpt>
      <trkpt lat="48.60049" lon="1.95316">
        <ele>103.48</ele>
        <time>2018-08-16T08:47:25Z</time>
      </trkpt>
      <trkpt lat="48.60045" lon="1.95321">
        <ele>103</ele>
        <time>2018-08-16T08:47:31Z</time>
      </trkpt>
      <trkpt lat="48.60037" lon="1.95337">
        <ele>103</ele>
        <time>2018-08-16T08:47:42Z</time>
      </trkpt>
      <trkpt lat="48.60029" lon="1.95359">
        <ele>102.52</ele>
        <time>2018-08-16T08:47:52Z</time>
      </trkpt>
      <trkpt lat="48.6002" lon="1.95376">
        <ele>102.04</ele>
        <time>2018-08-16T08:48:06Z</time>
      </trkpt>
      <trkpt lat="48.60013" lon="1.9539">
        <ele>101.56</ele>
        <time>2018-08-16T08:48:14Z</time>
      </trkpt>
      <trkpt lat="48.6" lon="1.95421">
        <ele>103</ele>
        <time>2018-08-16T08:48:25Z</time>
      </trkpt>
      <trkpt lat="48.59993" lon="1.95435">
        <ele>103</ele>
        <time>2018-08-16T08:48:35Z</time>
      </trkpt>
      <trkpt lat="48.59982" lon="1.95456">
        <ele>103.48</ele>
        <time>2018-08-16T08:48:46Z</time>
      </trkpt>
      <trkpt lat="48.59974" lon="1.95472">
        <ele>104.44</ele>
        <time>2018-08-16T08:48:58Z</time>
      </trkpt>
      <trkpt lat="48.59963" lon="1.95496">
        <ele>105.88</ele>
        <time>2018-08-16T08:49:11Z</time>
      </trkpt>
      <trkpt lat="48.59956" lon="1.95508">
        <ele>107.32</ele>
        <time>2018-08-16T08:49:20Z</time>
      </trkpt>
      <trkpt lat="48.59949" lon="1.95524">
        <ele>107.81</ele>
        <time>2018-08-16T08:49:27Z</time>
      </trkpt>
      <trkpt lat="48.59947" lon="1.95527">
        <ele>108.29</ele>
        <time>2018-08-16T08:49:29Z</time>
      </trkpt>
      <trkpt lat="48.5994" lon="1.95541">
        <ele>109.73</ele>
        <time>2018-08-16T08:49:39Z</time>
      </trkpt>
      <trkpt lat="48.59935" lon="1.95555">
        <ele>109.73</ele>
        <time>2018-08-16T08:49:49Z</time>
      </trkpt>
      <trkpt lat="48.59927" lon="1.95572">
        <ele>109.73</ele>
        <time>2018-08-16T08:49:57Z</time>
      </trkpt>
      <trkpt lat="48.59916" lon="1.95594">
        <ele>110.69</ele>
        <time>2018-08-16T08:50:07Z</time>
      </trkpt>
      <trkpt lat="48.59909" lon="1.9561">
        <ele>110.21</ele>
        <time>2018-08-16T08:50:17Z</time>
      </trkpt>
      <trkpt lat="48.59903" lon="1.95623">
        <ele>110.21</ele>
        <time>2018-08-16T08:50:26Z</time>
      </trkpt>
      <trkpt lat="48.59898" lon="1.95634">
        <ele>110.69</ele>
        <time>2018-08-16T08:50:34Z</time>
      </trkpt>
      <trkpt lat="48.59893" lon="1.95646">
        <ele>110.21</ele>
        <time>2018-08-16T08:50:45Z</time>
      </trkpt>
      <trkpt lat="48.59886" lon="1.95664">
        <ele>110.69</ele>
        <time>2018-08-16T08:50:56Z</time>
      </trkpt>
      <trkpt lat="48.59879" lon="1.95686">
        <ele>110.69</ele>
        <time>2018-08-16T08:51:04Z</time>
      </trkpt>
      <trkpt lat="48.59868" lon="1.95704">
        <ele>111.65</ele>
        <time>2018-08-16T08:51:13Z</time>
      </trkpt>
      <trkpt lat="48.59861" lon="1.95718">
        <ele>111.65</ele>
        <time>2018-08-16T08:51:21Z</time>
      </trkpt>
      <trkpt lat="48.59854" lon="1.95731">
        <ele>111.65</ele>
        <time>2018-08-16T08:51:30Z</time>
      </trkpt>
      <trkpt lat="48.59848" lon="1.95742">
        <ele>112.13</ele>
        <time>2018-08-16T08:51:39Z</time>
      </trkpt>
      <trkpt lat="48.59838" lon="1.9576">
        <ele>112.13</ele>
        <time>2018-08-16T08:51:51Z</time>
      </trkpt>
      <trkpt lat="48.59833" lon="1.95771">
        <ele>113.09</ele>
        <time>2018-08-16T08:51:57Z</time>
      </trkpt>
      <trkpt lat="48.59831" lon="1.95777">
        <ele>112.61</ele>
        <time>2018-08-16T08:52:02Z</time>
      </trkpt>
      <trkpt lat="48.59822" lon="1.95796">
        <ele>113.09</ele>
        <time>2018-08-16T08:52:14Z</time>
      </trkpt>
      <trkpt lat="48.59812" lon="1.95814">
        <ele>113.57</ele>
        <time>2018-08-16T08:52:24Z</time>
      </trkpt>
      <trkpt lat="48.59799" lon="1.95843">
        <ele>113.57</ele>
        <time>2018-08-16T08:52:34Z</time>
      </trkpt>
      <trkpt lat="48.59791" lon="1.95865">
        <ele>113.57</ele>
        <time>2018-08-16T08:52:44Z</time>
      </trkpt>
      <trkpt lat="48.59782" lon="1.95883">
        <ele>114.53</ele>
        <time>2018-08-16T08:52:53Z</time>
      </trkpt>
      <trkpt lat="48.59776" lon="1.95899">
        <ele>115.01</ele>
        <time>2018-08-16T08:53:01Z</time>
      </trkpt>
      <trkpt lat="48.59768" lon="1.95912">
        <ele>115.98</ele>
        <time>2018-08-16T08:53:11Z</time>
      </trkpt>
      <trkpt lat="48.5976" lon="1.95933">
        <ele>115.98</ele>
        <time>2018-08-16T08:53:22Z</time>
      </trkpt>
      <trkpt lat="48.59751" lon="1.9595">
        <ele>116.94</ele>
        <time>2018-08-16T08:53:31Z</time>
      </trkpt>
      <trkpt lat="48.5974" lon="1.95968">
        <ele>117.42</ele>
        <time>2018-08-16T08:53:41Z</time>
      </trkpt>
      <trkpt lat="48.59736" lon="1.95981">
        <ele>118.38</ele>
        <time>2018-08-16T08:53:50Z</time>
      </trkpt>
      <trkpt lat="48.59735" lon="1.95982">
        <ele>118.38</ele>
        <time>2018-08-16T08:53:51Z</time>
      </trkpt>
      <trkpt lat="48.59727" lon="1.96">
        <ele>118.38</ele>
        <time>2018-08-16T08:54:01Z</time>
      </trkpt>
      <trkpt lat="48.5972" lon="1.96018">
        <ele>119.34</ele>
        <time>2018-08-16T08:54:09Z</time>
      </trkpt>
      <trkpt lat="48.59712" lon="1.96037">
        <ele>119.34</ele>
        <time>2018-08-16T08:54:20Z</time>
      </trkpt>
      <trkpt lat="48.59708" lon="1.96049">
        <ele>119.82</ele>
        <time>2018-08-16T08:54:30Z</time>
      </trkpt>
      <trkpt lat="48.59708" lon="1.96051">
        <ele>120.3</ele>
        <time>2018-08-16T08:54:31Z</time>
      </trkpt>
      <trkpt lat="48.597" lon="1.96071">
        <ele>122.22</ele>
        <time>2018-08-16T08:54:41Z</time>
      </trkpt>
      <trkpt lat="48.59693" lon="1.96083">
        <ele>123.19</ele>
        <time>2018-08-16T08:54:51Z</time>
      </trkpt>
      <trkpt lat="48.59689" lon="1.96089">
        <ele>124.15</ele>
        <time>2018-08-16T08:54:55Z</time>
      </trkpt>
      <trkpt lat="48.59686" lon="1.96093">
        <ele>124.15</ele>
        <time>2018-08-16T08:54:59Z</time>
      </trkpt>
      <trkpt lat="48.59681" lon="1.96103">
        <ele>125.59</ele>
        <time>2018-08-16T08:55:05Z</time>
      </trkpt>
      <trkpt lat="48.59675" lon="1.96118">
        <ele>126.07</ele>
        <time>2018-08-16T08:55:15Z</time>
      </trkpt>
      <trkpt lat="48.59672" lon="1.96123">
        <ele>125.59</ele>
        <time>2018-08-16T08:55:19Z</time>
      </trkpt>
      <trkpt lat="48.59664" lon="1.96136">
        <ele>127.03</ele>
        <time>2018-08-16T08:55:29Z</time>
      </trkpt>
      <trkpt lat="48.59657" lon="1.9615">
        <ele>127.99</ele>
        <time>2018-08-16T08:55:39Z</time>
      </trkpt>
      <trkpt lat="48.59651" lon="1.96158">
        <ele>129.43</ele>
        <time>2018-08-16T08:55:48Z</time>
      </trkpt>
      <trkpt lat="48.5965" lon="1.96159">
        <ele>130.4</ele>
        <time>2018-08-16T08:55:55Z</time>
      </trkpt>
      <trkpt lat="48.59643" lon="1.96174">
        <ele>133.28</ele>
        <time>2018-08-16T08:56:05Z</time>
      </trkpt>
      <trkpt lat="48.59639" lon="1.96184">
        <ele>132.8</ele>
        <time>2018-08-16T08:56:12Z</time>
      </trkpt>
      <trkpt lat="48.59637" lon="1.96188">
        <ele>134.24</ele>
        <time>2018-08-16T08:56:15Z</time>
      </trkpt>
      <trkpt lat="48.59632" lon="1.96202">
        <ele>135.68</ele>
        <time>2018-08-16T08:56:22Z</time>
      </trkpt>
      <trkpt lat="48.59628" lon="1.96212">
        <ele>137.13</ele>
        <time>2018-08-16T08:56:28Z</time>
      </trkpt>
      <trkpt lat="48.59621" lon="1.96224">
        <ele>138.57</ele>
        <time>2018-08-16T08:56:37Z</time>
      </trkpt>
      <trkpt lat="48.5962" lon="1.96227">
        <ele>138.57</ele>
        <time>2018-08-16T08:56:40Z</time>
      </trkpt>
      <trkpt lat="48.59618" lon="1.96234">
        <ele>140.49</ele>
        <time>2018-08-16T08:56:44Z</time>
      </trkpt>
      <trkpt lat="48.59616" lon="1.9624">
        <ele>140.97</ele>
        <time>2018-08-16T08:56:48Z</time>
      </trkpt>
      <trkpt lat="48.5961" lon="1.96245">
        <ele>140.97</ele>
        <time>2018-08-16T08:56:55Z</time>
      </trkpt>
      <trkpt lat="48.59607" lon="1.96246">
        <ele>140.49</ele>
        <time>2018-08-16T08:57:10Z</time>
      </trkpt>
      <trkpt lat="48.59603" lon="1.96253">
        <ele>141.93</ele>
        <time>2018-08-16T08:57:15Z</time>
      </trkpt>
      <trkpt lat="48.59596" lon="1.96271">
        <ele>142.41</ele>
        <time>2018-08-16T08:57:27Z</time>
      </trkpt>
      <trkpt lat="48.59593" lon="1.96276">
        <ele>143.37</ele>
        <time>2018-08-16T08:57:30Z</time>
      </trkpt>
      <trkpt lat="48.59589" lon="1.9629">
        <ele>144.82</ele>
        <time>2018-08-16T08:57:38Z</time>
      </trkpt>
      <trkpt lat="48.59582" lon="1.96304">
        <ele>145.3</ele>
        <time>2018-08-16T08:57:47Z</time>
      </trkpt>
      <trkpt lat="48.5958" lon="1.96313">
        <ele>145.3</ele>
        <time>2018-08-16T08:57:55Z</time>
      </trkpt>
      <trkpt lat="48.59571" lon="1.96334">
        <ele>145.3</ele>
        <time>2018-08-16T08:58:05Z</time>
      </trkpt>
      <trkpt lat="48.59567" lon="1.96344">
        <ele>145.3</ele>
        <time>2018-08-16T08:58:12Z</time>
      </trkpt>
      <trkpt lat="48.5956" lon="1.96361">
        <ele>144.34</ele>
        <time>2018-08-16T08:58:21Z</time>
      </trkpt>
      <trkpt lat="48.59553" lon="1.96376">
        <ele>143.85</ele>
        <time>2018-08-16T08:58:30Z</time>
      </trkpt>
      <trkpt lat="48.59547" lon="1.9639">
        <ele>143.37</ele>
        <time>2018-08-16T08:58:39Z</time>
      </trkpt>
      <trkpt lat="48.59536" lon="1.96405">
        <ele>142.41</ele>
        <time>2018-08-16T08:58:48Z</time>
      </trkpt>
      <trkpt lat="48.59528" lon="1.96417">
        <ele>141.93</ele>
        <time>2018-08-16T08:58:56Z</time>
      </trkpt>
      <trkpt lat="48.5952" lon="1.96437">
        <ele>140.49</ele>
        <time>2018-08-16T08:59:07Z</time>
      </trkpt>
      <trkpt lat="48.59513" lon="1.96456">
        <ele>138.57</ele>
        <time>2018-08-16T08:59:17Z</time>
      </trkpt>
      <trkpt lat="48.59504" lon="1.96474">
        <ele>138.57</ele>
        <time>2018-08-16T08:59:26Z</time>
      </trkpt>
      <trkpt lat="48.59496" lon="1.96493">
        <ele>137.61</ele>
        <time>2018-08-16T08:59:35Z</time>
      </trkpt>
      <trkpt lat="48.5949" lon="1.96504">
        <ele>136.16</ele>
        <time>2018-08-16T08:59:43Z</time>
      </trkpt>
      <trkpt lat="48.59484" lon="1.96519">
        <ele>134.72</ele>
        <time>2018-08-16T08:59:53Z</time>
      </trkpt>
      <trkpt lat="48.5948" lon="1.96527">
        <ele>134.72</ele>
        <time>2018-08-16T09:00:00Z</time>
      </trkpt>
      <trkpt lat="48.59478" lon="1.96531">
        <ele>134.72</ele>
        <time>2018-08-16T09:00:02Z</time>
      </trkpt>
      <trkpt lat="48.59467" lon="1.96555">
        <ele>133.76</ele>
        <time>2018-08-16T09:00:13Z</time>
      </trkpt>
      <trkpt lat="48.59458" lon="1.96574">
        <ele>134.24</ele>
        <time>2018-08-16T09:00:23Z</time>
      </trkpt>
      <trkpt lat="48.5945" lon="1.96592">
        <ele>134.24</ele>
        <time>2018-08-16T09:00:32Z</time>
      </trkpt>
      <trkpt lat="48.59443" lon="1.96611">
        <ele>133.76</ele>
        <time>2018-08-16T09:00:40Z</time>
      </trkpt>
      <trkpt lat="48.59435" lon="1.96632">
        <ele>133.76</ele>
        <time>2018-08-16T09:00:50Z</time>
      </trkpt>
      <trkpt lat="48.59427" lon="1.96645">
        <ele>133.28</ele>
        <time>2018-08-16T09:00:59Z</time>
      </trkpt>
      <trkpt lat="48.5942" lon="1.96662">
        <ele>133.76</ele>
        <time>2018-08-16T09:01:07Z</time>
      </trkpt>
      <trkpt lat="48.59409" lon="1.96674">
        <ele>133.28</ele>
        <time>2018-08-16T09:01:17Z</time>
      </trkpt>
      <trkpt lat="48.59399" lon="1.96675">
        <ele>132.32</ele>
        <time>2018-08-16T09:01:24Z</time>
      </trkpt>
      <trkpt lat="48.59387" lon="1.9667">
        <ele>132.32</ele>
        <time>2018-08-16T09:01:32Z</time>
      </trkpt>
      <trkpt lat="48.59384" lon="1.96669">
        <ele>131.84</ele>
        <time>2018-08-16T09:01:34Z</time>
      </trkpt>
      <trkpt lat="48.59376" lon="1.96661">
        <ele>130.88</ele>
        <time>2018-08-16T09:01:42Z</time>
      </trkpt>
      <trkpt lat="48.59368" lon="1.96657">
        <ele>127.99</ele>
        <time>2018-08-16T09:01:51Z</time>
      </trkpt>
      <trkpt lat="48.5936" lon="1.96653">
        <ele>125.59</ele>
        <time>2018-08-16T09:01:59Z</time>
      </trkpt>
      <trkpt lat="48.59351" lon="1.96649">
        <ele>123.67</ele>
        <time>2018-08-16T09:02:07Z</time>
      </trkpt>
      <trkpt lat="48.59351" lon="1.96649">
        <ele>123.67</ele>
        <time>2018-08-16T09:02:08Z</time>
      </trkpt>
      <trkpt lat="48.59336" lon="1.96649">
        <ele>121.74</ele>
        <time>2018-08-16T09:02:18Z</time>
      </trkpt>
      <trkpt lat="48.59324" lon="1.96645">
        <ele>120.3</ele>
        <time>2018-08-16T09:02:29Z</time>
      </trkpt>
      <trkpt lat="48.59315" lon="1.96644">
        <ele>118.38</ele>
        <time>2018-08-16T09:02:38Z</time>
      </trkpt>
      <trkpt lat="48.5931" lon="1.96645">
        <ele>117.9</ele>
        <time>2018-08-16T09:02:46Z</time>
      </trkpt>
      <trkpt lat="48.59309" lon="1.96643">
        <ele>117.9</ele>
        <time>2018-08-16T09:02:47Z</time>
      </trkpt>
      <trkpt lat="48.59304" lon="1.9664">
        <ele>117.9</ele>
        <time>2018-08-16T09:02:51Z</time>
      </trkpt>
      <trkpt lat="48.59296" lon="1.96635">
        <ele>116.94</ele>
        <time>2018-08-16T09:02:59Z</time>
      </trkpt>
      <trkpt lat="48.59291" lon="1.96633">
        <ele>115.5</ele>
        <time>2018-08-16T09:03:03Z</time>
      </trkpt>
      <trkpt lat="48.59279" lon="1.96626">
        <ele>114.05</ele>
        <time>2018-08-16T09:03:12Z</time>
      </trkpt>
      <trkpt lat="48.59268" lon="1.96619">
        <ele>113.09</ele>
        <time>2018-08-16T09:03:22Z</time>
      </trkpt>
      <trkpt lat="48.59262" lon="1.96619">
        <ele>112.61</ele>
        <time>2018-08-16T09:03:27Z</time>
      </trkpt>
      <trkpt lat="48.59246" lon="1.96613">
        <ele>111.65</ele>
        <time>2018-08-16T09:03:36Z</time>
      </trkpt>
      <trkpt lat="48.59239" lon="1.96607">
        <ele>111.17</ele>
        <time>2018-08-16T09:03:44Z</time>
      </trkpt>
      <trkpt lat="48.5923" lon="1.966">
        <ele>109.73</ele>
        <time>2018-08-16T09:03:54Z</time>
      </trkpt>
      <trkpt lat="48.5922" lon="1.96599">
        <ele>108.77</ele>
        <time>2018-08-16T09:04:05Z</time>
      </trkpt>
      <trkpt lat="48.59209" lon="1.96596">
        <ele>108.29</ele>
        <time>2018-08-16T09:04:14Z</time>
      </trkpt>
      <trkpt lat="48.59202" lon="1.96593">
        <ele>107.81</ele>
        <time>2018-08-16T09:04:24Z</time>
      </trkpt>
      <trkpt lat="48.59201" lon="1.96592">
        <ele>107.32</ele>
        <time>2018-08-16T09:04:32Z</time>
      </trkpt>
      <trkpt lat="48.5919" lon="1.96606">
        <ele>107.32</ele>
        <time>2018-08-16T09:04:43Z</time>
      </trkpt>
      <trkpt lat="48.59186" lon="1.96612">
        <ele>107.32</ele>
        <time>2018-08-16T09:04:52Z</time>
      </trkpt>
      <trkpt lat="48.59184" lon="1.96615">
        <ele>107.32</ele>
        <time>2018-08-16T09:05:03Z</time>
      </trkpt>
      <trkpt lat="48.59184" lon="1.96615">
        <ele>107.81</ele>
        <time>2018-08-16T09:05:10Z</time>
      </trkpt>
      <trkpt lat="48.59183" lon="1.96618">
        <ele>107.81</ele>
        <time>2018-08-16T09:05:19Z</time>
      </trkpt>
      <trkpt lat="48.59182" lon="1.96618">
        <ele>107.81</ele>
        <time>2018-08-16T09:05:30Z</time>
      </trkpt>
      <trkpt lat="48.59182" lon="1.96616">
        <ele>107.81</ele>
        <time>2018-08-16T09:05:43Z</time>
      </trkpt>
    </trkseg>
  </trk>
</gpx>